Observation data for Dell City 1N on 01/19/2019      Previous  Date  Next       Current Mesonet Observations  Soil Data  Daily Summary Page  Observations in Plain Language
KDC1 190600Z 31018KT 09/M08 A3017 RMK A01 T00851078  RH  031%=      5-min Rain = 0
KDC1 190601Z 31018G24KT 08/M08 A3018 RMK A01 T00841078  RH  031%=      5-min Rain = 0
KDC1 190602Z 31020KT 08/M08 A3018 RMK A01 T00831078  RH  031%=      5-min Rain = 0
KDC1 190603Z 31019KT 08/M08 A3018 RMK A01 T00831078  RH  031%=      5-min Rain = 0
KDC1 190604Z 31017G22KT 08/M08 A3018 RMK A01 T00831078  RH  031%=      5-min Rain = 0
KDC1 190605Z 31019KT 08/M08 A3018 RMK A01 T00831077  RH  031%=      5-min Rain = 0
KDC1 190606Z 31017KT 08/M08 A3018 RMK A01 T00831078  RH  031%=      5-min Rain = 0
KDC1 190607Z 31016KT 08/M08 A3019 RMK A01 T00831078  RH  031%=      5-min Rain = 0
KDC1 190608Z 31013KT 08/M08 A3019 RMK A01 T00831077  RH  031%=      5-min Rain = 0
KDC1 190609Z 31014KT 08/M08 A3019 RMK A01 T00821077  RH  032%=      5-min Rain = 0
KDC1 190610Z 31016KT 08/M08 A3019 RMK A01 T00811077  RH  032%=      5-min Rain = 0
KDC1 190611Z 31018G24KT 08/M08 A3019 RMK A01 T00811077  RH  032%=      5-min Rain = 0
KDC1 190612Z 31016KT 08/M08 A3019 RMK A01 T00821076  RH  032%=      5-min Rain = 0
KDC1 190613Z 31018G23KT 08/M08 A3019 RMK A01 T00821076  RH  032%=      5-min Rain = 0
KDC1 190614Z 30017KT 08/M08 A3019 RMK A01 T00821076  RH  032%=      5-min Rain = 0
KDC1 190615Z 31019KT 08/M08 A3019 RMK A01 T00811076  RH  032%=      5-min Rain = 0
KDC1 190616Z 30019KT 08/M08 A3019 RMK A01 T00811076  RH  032%=      5-min Rain = 0
KDC1 190617Z 30020KT 08/M08 A3019 RMK A01 T00821076  RH  032%=      5-min Rain = 0
KDC1 190618Z 30018KT 08/M08 A3019 RMK A01 T00821076  RH  032%=      5-min Rain = 0
KDC1 190619Z 30016KT 08/M08 A3019 RMK A01 T00811076  RH  032%=      5-min Rain = 0
KDC1 190620Z 30019KT 08/M08 A3019 RMK A01 T00811075  RH  032%=      5-min Rain = 0
KDC1 190621Z 30017KT 08/M08 A3019 RMK A01 T00811076  RH  032%=      5-min Rain = 0
KDC1 190622Z 30016KT 08/M08 A302 RMK A01 T00811075  RH  032%=      5-min Rain = 0
KDC1 190623Z 30017KT 08/M08 A302 RMK A01 T00801075  RH  032%=      5-min Rain = 0
KDC1 190624Z 30019KT 08/M08 A302 RMK A01 T00801075  RH  033%=      5-min Rain = 0
KDC1 190625Z 30017KT 08/M08 A302 RMK A01 T00801075  RH  033%=      5-min Rain = 0
KDC1 190626Z 30015KT 08/M08 A302 RMK A01 T00801075  RH  033%=      5-min Rain = 0
KDC1 190627Z 30015KT 08/M08 A302 RMK A01 T00791075  RH  033%=      5-min Rain = 0
KDC1 190628Z 30014KT 08/M07 A302 RMK A01 T00781074  RH  033%=      5-min Rain = 0
KDC1 190629Z 30016KT 08/M07 A302 RMK A01 T00771074  RH  033%=      5-min Rain = 0
KDC1 190630Z 30016KT 08/M07 A3021 RMK A01 T00771074  RH  033%=      5-min Rain = 0
KDC1 190631Z 31015KT 08/M07 A3021 RMK A01 T00771074  RH  033%=      5-min Rain = 0
KDC1 190632Z 30015KT 08/M07 A3021 RMK A01 T00771074  RH  033%=      5-min Rain = 0
KDC1 190633Z 30014KT 08/M07 A3021 RMK A01 T00771074  RH  033%=      5-min Rain = 0
KDC1 190634Z 30014KT 08/M07 A3021 RMK A01 T00771074  RH  033%=      5-min Rain = 0
KDC1 190635Z 30015KT 08/M07 A3021 RMK A01 T00771074  RH  034%=      5-min Rain = 0
KDC1 190636Z 30015KT 08/M07 A3021 RMK A01 T00771074  RH  034%=      5-min Rain = 0
KDC1 190637Z 31015KT 08/M07 A3021 RMK A01 T00771074  RH  034%=      5-min Rain = 0
KDC1 190638Z 31014KT 08/M07 A3021 RMK A01 T00761073  RH  034%=      5-min Rain = 0
KDC1 190639Z 31014KT 08/M07 A3021 RMK A01 T00751073  RH  034%=      5-min Rain = 0
KDC1 190640Z 31013KT 08/M07 A3021 RMK A01 T00751073  RH  034%=      5-min Rain = 0
KDC1 190641Z 30013KT 07/M07 A3021 RMK A01 T00741073  RH  034%=      5-min Rain = 0
KDC1 190642Z 30014KT 07/M07 A3021 RMK A01 T00741073  RH  035%=      5-min Rain = 0
KDC1 190643Z 30014KT 07/M07 A3021 RMK A01 T00741073  RH  035%=      5-min Rain = 0
KDC1 190644Z 30015KT 07/M07 A3021 RMK A01 T00731073  RH  035%=      5-min Rain = 0
KDC1 190645Z 30014KT 07/M07 A3022 RMK A01 T00741073  RH  034%=      5-min Rain = 0
KDC1 190646Z 30014KT 07/M07 A3022 RMK A01 T00741073  RH  034%=      5-min Rain = 0
KDC1 190647Z 30013KT 07/M07 A3022 RMK A01 T00731073  RH  035%=      5-min Rain = 0
KDC1 190648Z 30014KT 07/M07 A3022 RMK A01 T00731073  RH  035%=      5-min Rain = 0
KDC1 190649Z 30013KT 07/M07 A3022 RMK A01 T00731073  RH  035%=      5-min Rain = 0
KDC1 190650Z 30011KT 07/M07 A3022 RMK A01 T00731073  RH  035%=      5-min Rain = 0
KDC1 190651Z 30012KT 07/M07 A3022 RMK A01 T00711073  RH  035%=      5-min Rain = 0
KDC1 190652Z 30012KT 07/M07 A3022 RMK A01 T00701073  RH  035%=      5-min Rain = 0
KDC1 190653Z 30014KT 07/M07 A3022 RMK A01 T00691072  RH  036%=      5-min Rain = 0
KDC1 190654Z 30013KT 07/M07 A3022 RMK A01 T00691072  RH  036%=      5-min Rain = 0
KDC1 190655Z 30012KT 07/M07 A3023 RMK A01 T00691072  RH  036%=      5-min Rain = 0
KDC1 190656Z 30011KT 07/M07 A3023 RMK A01 T00691072  RH  036%=      5-min Rain = 0
KDC1 190657Z 30012KT 07/M07 A3023 RMK A01 T00691072  RH  036%=      5-min Rain = 0
KDC1 190658Z 30011KT 07/M07 A3023 RMK A01 T00691072  RH  036%=      5-min Rain = 0
KDC1 190659Z 31012KT 07/M07 A3023 RMK A01 T00681072  RH  036%=      5-min Rain = 0
KDC1 190700Z 31011KT 07/M07 A3023 RMK A01 T00681072  RH  036%=      5-min Rain = 0
KDC1 190701Z 31011KT 07/M07 A3023 RMK A01 T00671072  RH  036%=      5-min Rain = 0
KDC1 190702Z 31011KT 07/M07 A3023 RMK A01 T00671072  RH  036%=      5-min Rain = 0
KDC1 190703Z 31011KT 07/M07 A3023 RMK A01 T00671072  RH  036%=      5-min Rain = 0
KDC1 190704Z 31010KT 07/M07 A3023 RMK A01 T00661072  RH  037%=      5-min Rain = 0
KDC1 190705Z 31010KT 07/M07 A3023 RMK A01 T00651072  RH  037%=      5-min Rain = 0
KDC1 190706Z 31011KT 07/M07 A3023 RMK A01 T00651071  RH  037%=      5-min Rain = 0
KDC1 190707Z 31010KT 06/M07 A3023 RMK A01 T00641071  RH  037%=      5-min Rain = 0
KDC1 190708Z 31010KT 06/M07 A3023 RMK A01 T00631071  RH  038%=      5-min Rain = 0
KDC1 190709Z 31009KT 06/M07 A3023 RMK A01 T00621070  RH  038%=      5-min Rain = 0
KDC1 190710Z 31010KT 06/M07 A3023 RMK A01 T00611070  RH  038%=      5-min Rain = 0
KDC1 190711Z 31011KT 06/M07 A3023 RMK A01 T00611070  RH  038%=      5-min Rain = 0
KDC1 190712Z 31011KT 06/M07 A3023 RMK A01 T00621070  RH  038%=      5-min Rain = 0
KDC1 190713Z 31010KT 06/M07 A3024 RMK A01 T00631070  RH  038%=      5-min Rain = 0
KDC1 190714Z 31010KT 06/M07 A3024 RMK A01 T00631071  RH  038%=      5-min Rain = 0
KDC1 190715Z 31010KT 06/M07 A3024 RMK A01 T00631070  RH  038%=      5-min Rain = 0
KDC1 190716Z 32011KT 06/M07 A3024 RMK A01 T00621070  RH  038%=      5-min Rain = 0
KDC1 190717Z 32009KT 06/M07 A3024 RMK A01 T00611070  RH  038%=      5-min Rain = 0
KDC1 190718Z 32009KT 06/M07 A3024 RMK A01 T00601070  RH  039%=      5-min Rain = 0
KDC1 190719Z 32009KT 06/M07 A3024 RMK A01 T00601070  RH  039%=      5-min Rain = 0
KDC1 190720Z 33008KT 06/M07 A3024 RMK A01 T00601070  RH  039%=      5-min Rain = 0
KDC1 190721Z 33007KT 06/M07 A3024 RMK A01 T00591070  RH  039%=      5-min Rain = 0
KDC1 190722Z 34007KT 06/M07 A3024 RMK A01 T00581070  RH  039%=      5-min Rain = 0
KDC1 190723Z 34007KT 06/M07 A3025 RMK A01 T00581070  RH  039%=      5-min Rain = 0
KDC1 190724Z 35006KT 06/M07 A3025 RMK A01 T00581070  RH  039%=      5-min Rain = 0
KDC1 190725Z 35007KT 06/M07 A3025 RMK A01 T00581071  RH  039%=      5-min Rain = 0
KDC1 190726Z 35006KT 06/M07 A3025 RMK A01 T00581071  RH  039%=      5-min Rain = 0
KDC1 190727Z 34007KT 06/M07 A3025 RMK A01 T00581072  RH  039%=      5-min Rain = 0
KDC1 190728Z 34007KT 06/M07 A3025 RMK A01 T00591072  RH  038%=      5-min Rain = 0
KDC1 190729Z 34008KT 06/M07 A3025 RMK A01 T00611072  RH  038%=      5-min Rain = 0
KDC1 190730Z 33009KT 06/M07 A3025 RMK A01 T00631072  RH  037%=      5-min Rain = 0
KDC1 190731Z 33008KT 07/M07 A3025 RMK A01 T00661072  RH  037%=      5-min Rain = 0
KDC1 190732Z 33008KT 07/M07 A3025 RMK A01 T00671073  RH  036%=      5-min Rain = 0
KDC1 190733Z 32008KT 07/M07 A3025 RMK A01 T00671073  RH  036%=      5-min Rain = 0
KDC1 190734Z 32008KT 07/M07 A3025 RMK A01 T00661072  RH  036%=      5-min Rain = 0
KDC1 190735Z 31008KT 07/M07 A3025 RMK A01 T00651072  RH  037%=      5-min Rain = 0
KDC1 190736Z 31007KT 06/M07 A3025 RMK A01 T00631072  RH  037%=      5-min Rain = 0
KDC1 190737Z 31008KT 06/M07 A3025 RMK A01 T00591073  RH  038%=      5-min Rain = 0
KDC1 190738Z 30008KT 06/M07 A3025 RMK A01 T00571073  RH  039%=      5-min Rain = 0
KDC1 190739Z 30008KT 06/M07 A3025 RMK A01 T00571072  RH  039%=      5-min Rain = 0
KDC1 190740Z 30010KT 06/M07 A3025 RMK A01 T00561072  RH  039%=      5-min Rain = 0
KDC1 190741Z 30011KT 06/M07 A3025 RMK A01 T00551072  RH  040%=      5-min Rain = 0
KDC1 190742Z 31009KT 06/M07 A3025 RMK A01 T00571071  RH  039%=      5-min Rain = 0
KDC1 190743Z 30008KT 06/M07 A3025 RMK A01 T00591071  RH  039%=      5-min Rain = 0
KDC1 190744Z 30008KT 06/M07 A3025 RMK A01 T00601071  RH  038%=      5-min Rain = 0
KDC1 190745Z 30009KT 06/M07 A3025 RMK A01 T00601071  RH  038%=      5-min Rain = 0
KDC1 190746Z 31011KT 06/M07 A3025 RMK A01 T00601071  RH  038%=      5-min Rain = 0
KDC1 190747Z 31010KT 06/M07 A3025 RMK A01 T00621071  RH  038%=      5-min Rain = 0
KDC1 190748Z 30009KT 07/M07 A3026 RMK A01 T00661071  RH  037%=      5-min Rain = 0
KDC1 190749Z 30009KT 07/M07 A3026 RMK A01 T00661072  RH  037%=      5-min Rain = 0
KDC1 190750Z 30009KT 07/M07 A3026 RMK A01 T00651072  RH  037%=      5-min Rain = 0
KDC1 190751Z 30011KT 06/M07 A3026 RMK A01 T00631072  RH  037%=      5-min Rain = 0
KDC1 190752Z 29010KT 06/M07 A3026 RMK A01 T00631072  RH  037%=      5-min Rain = 0
KDC1 190753Z 29010KT 06/M07 A3026 RMK A01 T00621072  RH  038%=      5-min Rain = 0
KDC1 190754Z 30010KT 06/M07 A3026 RMK A01 T00611072  RH  038%=      5-min Rain = 0
KDC1 190755Z 29008KT 06/M07 A3026 RMK A01 T00601072  RH  038%=      5-min Rain = 0
KDC1 190756Z 29009KT 06/M07 A3026 RMK A01 T00571073  RH  039%=      5-min Rain = 0
KDC1 190757Z 29009KT 05/M07 A3026 RMK A01 T00541073  RH  039%=      5-min Rain = 0
KDC1 190758Z 29010KT 05/M07 A3026 RMK A01 T00531072  RH  040%=      5-min Rain = 0
KDC1 190759Z 29010KT 05/M07 A3026 RMK A01 T00521073  RH  040%=      5-min Rain = 0
KDC1 190800Z 29010KT 05/M07 A3026 RMK A01 T00521072  RH  040%=      5-min Rain = 0
KDC1 190801Z 29010KT 05/M07 A3026 RMK A01 T00541072  RH  040%=      5-min Rain = 0
KDC1 190802Z 29009KT 06/M07 A3026 RMK A01 T00551072  RH  039%=      5-min Rain = 0
KDC1 190803Z 29009KT 06/M07 A3026 RMK A01 T00561072  RH  039%=      5-min Rain = 0
KDC1 190804Z 29008KT 06/M07 A3026 RMK A01 T00551073  RH  039%=      5-min Rain = 0
KDC1 190805Z 30008KT 05/M07 A3026 RMK A01 T00531073  RH  040%=      5-min Rain = 0
KDC1 190806Z 29007KT 05/M07 A3026 RMK A01 T00521072  RH  040%=      5-min Rain = 0
KDC1 190807Z 30006KT 05/M07 A3026 RMK A01 T00501072  RH  041%=      5-min Rain = 0
KDC1 190808Z 30006KT 05/M07 A3026 RMK A01 T00481073  RH  041%=      5-min Rain = 0
KDC1 190809Z 30006KT 05/M07 A3026 RMK A01 T00461072  RH  042%=      5-min Rain = 0
KDC1 190810Z 30006KT 05/M07 A3026 RMK A01 T00451073  RH  042%=      5-min Rain = 0
KDC1 190811Z 30006KT 04/M07 A3026 RMK A01 T00441072  RH  042%=      5-min Rain = 0
KDC1 190812Z 31006KT 04/M07 A3026 RMK A01 T00431073  RH  043%=      5-min Rain = 0
KDC1 190813Z 30006KT 04/M07 A3026 RMK A01 T00421072  RH  043%=      5-min Rain = 0
KDC1 190814Z 30007KT 04/M07 A3026 RMK A01 T00401073  RH  043%=      5-min Rain = 0
KDC1 190815Z 30007KT 04/M07 A3026 RMK A01 T00391073  RH  044%=      5-min Rain = 0
KDC1 190816Z 31005KT 04/M07 A3026 RMK A01 T00371074  RH  044%=      5-min Rain = 0
KDC1 190817Z 30005KT 04/M07 A3026 RMK A01 T00351073  RH  045%=      5-min Rain = 0
KDC1 190818Z 30006KT 03/M07 A3026 RMK A01 T00341073  RH  046%=      5-min Rain = 0
KDC1 190819Z 31005KT 03/M07 A3026 RMK A01 T00331073  RH  046%=      5-min Rain = 0
KDC1 190820Z 33005KT 03/M07 A3026 RMK A01 T00321072  RH  046%=      5-min Rain = 0
KDC1 190821Z 32007KT 03/M07 A3026 RMK A01 T00321071  RH  047%=      5-min Rain = 0
KDC1 190822Z 31007KT 03/M07 A3026 RMK A01 T00321071  RH  047%=      5-min Rain = 0
KDC1 190823Z 31009KT 03/M07 A3026 RMK A01 T00341070  RH  046%=      5-min Rain = 0
KDC1 190824Z 31009KT 04/M07 A3026 RMK A01 T00371071  RH  045%=      5-min Rain = 0
KDC1 190825Z 31008KT 04/M07 A3026 RMK A01 T00401070  RH  044%=      5-min Rain = 0
KDC1 190826Z 31009KT 04/M07 A3026 RMK A01 T00401071  RH  044%=      5-min Rain = 0
KDC1 190827Z 31008KT 04/M07 A3026 RMK A01 T00401071  RH  044%=      5-min Rain = 0
KDC1 190828Z 31008KT 04/M07 A3026 RMK A01 T00391071  RH  045%=      5-min Rain = 0
KDC1 190829Z 31008KT 04/M07 A3026 RMK A01 T00371071  RH  045%=      5-min Rain = 0
KDC1 190830Z 31008KT 04/M07 A3026 RMK A01 T00351070  RH  046%=      5-min Rain = 0
KDC1 190831Z 30007KT 03/M07 A3026 RMK A01 T00331070  RH  047%=      5-min Rain = 0
KDC1 190832Z 30008KT 03/M07 A3026 RMK A01 T00311070  RH  047%=      5-min Rain = 0
KDC1 190833Z 30008KT 03/M07 A3026 RMK A01 T00311070  RH  047%=      5-min Rain = 0
KDC1 190834Z 31009KT 03/M07 A3026 RMK A01 T00321070  RH  047%=      5-min Rain = 0
KDC1 190835Z 31009KT 03/M07 A3026 RMK A01 T00321070  RH  047%=      5-min Rain = 0
KDC1 190836Z 30008KT 03/M07 A3026 RMK A01 T00321070  RH  047%=      5-min Rain = 0
KDC1 190837Z 30008KT 03/M07 A3026 RMK A01 T00311071  RH  047%=      5-min Rain = 0
KDC1 190838Z 30008KT 03/M07 A3026 RMK A01 T00301071  RH  048%=      5-min Rain = 0
KDC1 190839Z 30009KT 03/M07 A3026 RMK A01 T00301070  RH  048%=      5-min Rain = 0
KDC1 190840Z 30008KT 03/M07 A3027 RMK A01 T00291070  RH  048%=      5-min Rain = 0
KDC1 190841Z 30008KT 03/M07 A3027 RMK A01 T00271070  RH  049%=      5-min Rain = 0
KDC1 190842Z 30008KT 02/M07 A3027 RMK A01 T00241071  RH  050%=      5-min Rain = 0
KDC1 190843Z 29008KT 02/M07 A3027 RMK A01 T00221071  RH  050%=      5-min Rain = 0
KDC1 190844Z 30009KT 02/M07 A3027 RMK A01 T00221071  RH  050%=      5-min Rain = 0
KDC1 190845Z 30008KT 02/M07 A3027 RMK A01 T00211072  RH  050%=      5-min Rain = 0
KDC1 190846Z 29008KT 02/M07 A3027 RMK A01 T00201072  RH  051%=      5-min Rain = 0
KDC1 190847Z 29009KT 02/M07 A3027 RMK A01 T00191072  RH  051%=      5-min Rain = 0
KDC1 190848Z 29009KT 02/M07 A3027 RMK A01 T00181073  RH  051%=      5-min Rain = 0
KDC1 190849Z 29009KT 02/M07 A3027 RMK A01 T00181073  RH  051%=      5-min Rain = 0
KDC1 190850Z 29009KT 02/M07 A3027 RMK A01 T00181073  RH  051%=      5-min Rain = 0
KDC1 190851Z 29010KT 02/M07 A3027 RMK A01 T00181074  RH  051%=      5-min Rain = 0
KDC1 190852Z 29010KT 02/M07 A3027 RMK A01 T00191074  RH  050%=      5-min Rain = 0
KDC1 190853Z 29009KT 02/M07 A3027 RMK A01 T00211074  RH  049%=      5-min Rain = 0
KDC1 190854Z 29009KT 02/M08 A3027 RMK A01 T00221075  RH  049%=      5-min Rain = 0
KDC1 190855Z 29009KT 02/M08 A3027 RMK A01 T00221075  RH  049%=      5-min Rain = 0
KDC1 190856Z 29009KT 02/M08 A3027 RMK A01 T00211076  RH  049%=      5-min Rain = 0
KDC1 190857Z 29009KT 02/M08 A3027 RMK A01 T00211076  RH  049%=      5-min Rain = 0
KDC1 190858Z 29010KT 02/M08 A3027 RMK A01 T00211076  RH  049%=      5-min Rain = 0
KDC1 190859Z 29009KT 02/M08 A3027 RMK A01 T00211076  RH  049%=      5-min Rain = 0
KDC1 190900Z 29009KT 02/M08 A3027 RMK A01 T00211076  RH  049%=      5-min Rain = 0
KDC1 190901Z 29009KT 02/M08 A3027 RMK A01 T00211075  RH  049%=      5-min Rain = 0
KDC1 190902Z 29008KT 02/M08 A3027 RMK A01 T00221075  RH  049%=      5-min Rain = 0
KDC1 190903Z 29008KT 02/M08 A3027 RMK A01 T00221075  RH  049%=      5-min Rain = 0
KDC1 190904Z 29009KT 02/M08 A3027 RMK A01 T00211075  RH  049%=      5-min Rain = 0
KDC1 190905Z 30009KT 02/M08 A3027 RMK A01 T00201075  RH  049%=      5-min Rain = 0
KDC1 190906Z 30009KT 02/M08 A3027 RMK A01 T00201075  RH  050%=      5-min Rain = 0
KDC1 190907Z 30010KT 02/M08 A3028 RMK A01 T00191075  RH  050%=      5-min Rain = 0
KDC1 190908Z 30010KT 02/M07 A3028 RMK A01 T00191074  RH  050%=      5-min Rain = 0
KDC1 190909Z 30010KT 02/M07 A3028 RMK A01 T00201074  RH  050%=      5-min Rain = 0
KDC1 190910Z 30010KT 02/M07 A3028 RMK A01 T00201074  RH  050%=      5-min Rain = 0
KDC1 190911Z 30010KT 02/M07 A3028 RMK A01 T00201073  RH  050%=      5-min Rain = 0
KDC1 190912Z 30010KT 02/M07 A3028 RMK A01 T00201073  RH  050%=      5-min Rain = 0
KDC1 190913Z 30010KT 02/M07 A3028 RMK A01 T00201073  RH  050%=      5-min Rain = 0
KDC1 190914Z 31010KT 02/M07 A3028 RMK A01 T00201073  RH  050%=      5-min Rain = 0
KDC1 190915Z 31009KT 02/M07 A3028 RMK A01 T00201072  RH  051%=      5-min Rain = 0
KDC1 190916Z 31008KT 02/M07 A3028 RMK A01 T00191072  RH  051%=      5-min Rain = 0
KDC1 190917Z 32007KT 02/M07 A3028 RMK A01 T00181072  RH  051%=      5-min Rain = 0
KDC1 190918Z 32006KT 02/M07 A3028 RMK A01 T00171071  RH  052%=      5-min Rain = 0
KDC1 190919Z 33005KT 02/M07 A3028 RMK A01 T00161071  RH  053%=      5-min Rain = 0
KDC1 190920Z 33005KT 01/M07 A3028 RMK A01 T00141070  RH  053%=      5-min Rain = 0
KDC1 190921Z 32005KT 01/M07 A3028 RMK A01 T00131070  RH  054%=      5-min Rain = 0
KDC1 190922Z 32006KT 01/M07 A3029 RMK A01 T00121070  RH  054%=      5-min Rain = 0
KDC1 190923Z 31008KT 01/M07 A3029 RMK A01 T00121070  RH  054%=      5-min Rain = 0
KDC1 190924Z 31007KT 01/M07 A3029 RMK A01 T00121070  RH  054%=      5-min Rain = 0
KDC1 190925Z 31007KT 01/M07 A3029 RMK A01 T00121070  RH  054%=      5-min Rain = 0
KDC1 190926Z 31007KT 01/M07 A3029 RMK A01 T00121070  RH  054%=      5-min Rain = 0
KDC1 190927Z 31006KT 01/M07 A3029 RMK A01 T00111070  RH  055%=      5-min Rain = 0
KDC1 190928Z 31006KT 01/M07 A3029 RMK A01 T00101070  RH  055%=      5-min Rain = 0
KDC1 190929Z 31007KT 01/M07 A3029 RMK A01 T00091070  RH  055%=      5-min Rain = 0
KDC1 190930Z 31007KT 01/M07 A3029 RMK A01 T00091071  RH  055%=      5-min Rain = 0
KDC1 190931Z 30008KT 01/M07 A3029 RMK A01 T00111070  RH  055%=      5-min Rain = 0
KDC1 190932Z 30008KT 01/M07 A3029 RMK A01 T00131070  RH  054%=      5-min Rain = 0
KDC1 190933Z 30008KT 02/M07 A3029 RMK A01 T00151070  RH  053%=      5-min Rain = 0
KDC1 190934Z 30008KT 02/M07 A3029 RMK A01 T00161071  RH  052%=      5-min Rain = 0
KDC1 190935Z 30009KT 02/M07 A3029 RMK A01 T00171071  RH  052%=      5-min Rain = 0
KDC1 190936Z 30009KT 02/M07 A3029 RMK A01 T00181071  RH  052%=      5-min Rain = 0
KDC1 190937Z 30009KT 02/M07 A3029 RMK A01 T00181072  RH  051%=      5-min Rain = 0
KDC1 190938Z 30009KT 02/M07 A3029 RMK A01 T00181072  RH  051%=      5-min Rain = 0
KDC1 190939Z 30008KT 02/M07 A3029 RMK A01 T00181072  RH  051%=      5-min Rain = 0
KDC1 190940Z 30007KT 02/M07 A3029 RMK A01 T00191072  RH  051%=      5-min Rain = 0
KDC1 190941Z 32007KT 02/M07 A3029 RMK A01 T00181072  RH  051%=      5-min Rain = 0
KDC1 190942Z 33005KT 02/M07 A3029 RMK A01 T00181071  RH  052%=      5-min Rain = 0
KDC1 190943Z 35005KT 02/M07 A3029 RMK A01 T00161071  RH  053%=      5-min Rain = 0
KDC1 190944Z 33005KT 02/M07 A3029 RMK A01 T00151071  RH  053%=      5-min Rain = 0
KDC1 190945Z 32006KT 02/M07 A3029 RMK A01 T00151070  RH  053%=      5-min Rain = 0
KDC1 190946Z 32006KT 02/M07 A3029 RMK A01 T00181069  RH  052%=      5-min Rain = 0
KDC1 190947Z 32006KT 02/M07 A3029 RMK A01 T00201070  RH  051%=      5-min Rain = 0
KDC1 190948Z 32006KT 02/M07 A3029 RMK A01 T00221070  RH  051%=      5-min Rain = 0
KDC1 190949Z 33006KT 02/M07 A303 RMK A01 T00231070  RH  050%=      5-min Rain = 0
KDC1 190950Z 34006KT 02/M07 A303 RMK A01 T00231070  RH  050%=      5-min Rain = 0
KDC1 190951Z 35007KT 02/M07 A303 RMK A01 T00221071  RH  050%=      5-min Rain = 0
KDC1 190952Z 33008KT 02/M07 A303 RMK A01 T00241071  RH  049%=      5-min Rain = 0
KDC1 190953Z 32007KT 03/M07 A3029 RMK A01 T00251072  RH  049%=      5-min Rain = 0
KDC1 190954Z 31008KT 03/M07 A3029 RMK A01 T00271072  RH  048%=      5-min Rain = 0
KDC1 190955Z 31008KT 03/M07 A3029 RMK A01 T00281072  RH  048%=      5-min Rain = 0
KDC1 190956Z 31009KT 03/M07 A3029 RMK A01 T00281072  RH  048%=      5-min Rain = 0
KDC1 190957Z 31010KT 03/M07 A3029 RMK A01 T00281072  RH  048%=      5-min Rain = 0
KDC1 190958Z 31010KT 03/M07 A3029 RMK A01 T00291071  RH  048%=      5-min Rain = 0
KDC1 190959Z 31010KT 03/M07 A3029 RMK A01 T00291071  RH  048%=      5-min Rain = 0
KDC1 191000Z 32009KT 03/M07 A3029 RMK A01 T00281071  RH  048%=      5-min Rain = 0
KDC1 191001Z 34007KT 03/M07 A303 RMK A01 T00271071  RH  048%=      5-min Rain = 0
KDC1 191002Z 35006KT 03/M07 A303 RMK A01 T00251072  RH  049%=      5-min Rain = 0
KDC1 191003Z 33008KT 02/M07 A303 RMK A01 T00231072  RH  049%=      5-min Rain = 0
KDC1 191004Z 33009KT 02/M07 A303 RMK A01 T00231072  RH  049%=      5-min Rain = 0
KDC1 191005Z 32009KT 03/M07 A3029 RMK A01 T00261072  RH  049%=      5-min Rain = 0
KDC1 191006Z 32009KT 03/M07 A3029 RMK A01 T00281072  RH  048%=      5-min Rain = 0
KDC1 191007Z 32009KT 03/M07 A3029 RMK A01 T00291072  RH  047%=      5-min Rain = 0
KDC1 191008Z 33009KT 03/M07 A3029 RMK A01 T00291073  RH  047%=      5-min Rain = 0
KDC1 191009Z 33009KT 03/M07 A3029 RMK A01 T00291073  RH  047%=      5-min Rain = 0
KDC1 191010Z 33008KT 03/M07 A3029 RMK A01 T00281073  RH  047%=      5-min Rain = 0
KDC1 191011Z 34007KT 03/M07 A3029 RMK A01 T00281073  RH  047%=      5-min Rain = 0
KDC1 191012Z 34008KT 03/M07 A303 RMK A01 T00281073  RH  047%=      5-min Rain = 0
KDC1 191013Z 34008KT 03/M07 A3029 RMK A01 T00281074  RH  047%=      5-min Rain = 0
KDC1 191014Z 34008KT 03/M07 A3029 RMK A01 T00281074  RH  047%=      5-min Rain = 0
KDC1 191015Z 33008KT 03/M07 A3029 RMK A01 T00271074  RH  047%=      5-min Rain = 0
KDC1 191016Z 34008KT 03/M07 A3029 RMK A01 T00281074  RH  047%=      5-min Rain = 0
KDC1 191017Z 34008KT 03/M07 A3029 RMK A01 T00271074  RH  047%=      5-min Rain = 0
KDC1 191018Z 34008KT 03/M07 A3029 RMK A01 T00261074  RH  048%=      5-min Rain = 0
KDC1 191019Z 34007KT 03/M07 A3029 RMK A01 T00261074  RH  048%=      5-min Rain = 0
KDC1 191020Z 34007KT 03/M07 A303 RMK A01 T00261074  RH  048%=      5-min Rain = 0
KDC1 191021Z 35006KT 03/M07 A303 RMK A01 T00251074  RH  048%=      5-min Rain = 0
KDC1 191022Z 35006KT 02/M07 A303 RMK A01 T00241074  RH  048%=      5-min Rain = 0
KDC1 191023Z 34006KT 02/M08 A303 RMK A01 T00231075  RH  048%=      5-min Rain = 0
KDC1 191024Z 33005KT 02/M08 A303 RMK A01 T00211075  RH  049%=      5-min Rain = 0
KDC1 191025Z 33005KT 02/M08 A303 RMK A01 T00211075  RH  049%=      5-min Rain = 0
KDC1 191026Z 35005KT 02/M08 A303 RMK A01 T00201075  RH  049%=      5-min Rain = 0
KDC1 191027Z 35004KT 02/M08 A303 RMK A01 T00201075  RH  049%=      5-min Rain = 0
KDC1 191028Z 35005KT 02/M08 A303 RMK A01 T00191075  RH  050%=      5-min Rain = 0
KDC1 191029Z 35005KT 02/M08 A303 RMK A01 T00181076  RH  050%=      5-min Rain = 0
KDC1 191030Z 34006KT 02/M08 A303 RMK A01 T00161076  RH  050%=      5-min Rain = 0
KDC1 191031Z 34006KT 02/M08 A303 RMK A01 T00151076  RH  051%=      5-min Rain = 0
KDC1 191032Z 35006KT 01/M08 A303 RMK A01 T00141076  RH  051%=      5-min Rain = 0
KDC1 191033Z 35006KT 01/M08 A303 RMK A01 T00141076  RH  051%=      5-min Rain = 0
KDC1 191034Z 35007KT 01/M08 A303 RMK A01 T00131076  RH  052%=      5-min Rain = 0
KDC1 191035Z 35006KT 01/M08 A303 RMK A01 T00131076  RH  052%=      5-min Rain = 0
KDC1 191036Z 35005KT 01/M08 A303 RMK A01 T00121076  RH  052%=      5-min Rain = 0
KDC1 191037Z 35004KT 01/M08 A303 RMK A01 T00121076  RH  052%=      5-min Rain = 0
KDC1 191038Z 35004KT 01/M08 A303 RMK A01 T00121076  RH  052%=      5-min Rain = 0
KDC1 191039Z 35004KT 01/M08 A303 RMK A01 T00121076  RH  052%=      5-min Rain = 0
KDC1 191040Z 35005KT 01/M08 A303 RMK A01 T00121077  RH  052%=      5-min Rain = 0
KDC1 191041Z 35004KT 01/M08 A303 RMK A01 T00111076  RH  052%=      5-min Rain = 0
KDC1 191042Z 34004KT 01/M08 A303 RMK A01 T00101076  RH  052%=      5-min Rain = 0
KDC1 191043Z 34004KT 01/M08 A303 RMK A01 T00091076  RH  053%=      5-min Rain = 0
KDC1 191044Z 34005KT 01/M08 A303 RMK A01 T00081076  RH  053%=      5-min Rain = 0
KDC1 191045Z 34005KT 01/M08 A303 RMK A01 T00071076  RH  054%=      5-min Rain = 0
KDC1 191046Z 34004KT 01/M08 A303 RMK A01 T00051076  RH  055%=      5-min Rain = 0
KDC1 191047Z 34004KT 00/M08 A303 RMK A01 T00041076  RH  055%=      5-min Rain = 0
KDC1 191048Z 34003KT 00/M08 A303 RMK A01 T00031076  RH  056%=      5-min Rain = 0
KDC1 191049Z 34003KT 00/M08 A303 RMK A01 T00021076  RH  056%=      5-min Rain = 0
KDC1 191050Z 33003KT 00/M08 A303 RMK A01 T00011076  RH  056%=      5-min Rain = 0
KDC1 191051Z 32002KT 00/M08 A303 RMK A01 T00011075  RH  056%=      5-min Rain = 0
KDC1 191052Z 32002KT 00/M08 A303 RMK A01 T00021075  RH  056%=      5-min Rain = 0
KDC1 191053Z 30002KT 00/M08 A303 RMK A01 T00031076  RH  056%=      5-min Rain = 0
KDC1 191054Z 29001KT 00/M08 A303 RMK A01 T00041076  RH  055%=      5-min Rain = 0
KDC1 191055Z 28001KT 01/M08 A303 RMK A01 T00051076  RH  055%=      5-min Rain = 0
KDC1 191056Z 27001KT 01/M08 A303 RMK A01 T00051076  RH  055%=      5-min Rain = 0
KDC1 191057Z 00000KT 00/M08 A303 RMK A01 T00041076  RH  055%=      5-min Rain = 0
KDC1 191058Z 00000KT 00/M08 A3031 RMK A01 T00041076  RH  055%=      5-min Rain = 0
KDC1 191059Z 00000KT 00/M08 A3031 RMK A01 T00041076  RH  055%=      5-min Rain = 0
KDC1 191100Z 30000KT 00/M08 A3031 RMK A01 T00041075  RH  055%=      5-min Rain = 0
KDC1 191101Z 30001KT 00/M08 A3031 RMK A01 T00041076  RH  055%=      5-min Rain = 0
KDC1 191102Z 31001KT 00/M08 A3031 RMK A01 T00041076  RH  055%=      5-min Rain = 0
KDC1 191103Z 31002KT 00/M08 A3031 RMK A01 T00041076  RH  055%=      5-min Rain = 0
KDC1 191104Z 30003KT 01/M08 A3031 RMK A01 T00051076  RH  055%=      5-min Rain = 0
KDC1 191105Z 31004KT 01/M08 A303 RMK A01 T00061075  RH  055%=      5-min Rain = 0
KDC1 191106Z 31004KT 01/M07 A303 RMK A01 T00091074  RH  054%=      5-min Rain = 0
KDC1 191107Z 31005KT 01/M07 A303 RMK A01 T00121074  RH  053%=      5-min Rain = 0
KDC1 191108Z 32005KT 01/M07 A303 RMK A01 T00141074  RH  052%=      5-min Rain = 0
KDC1 191109Z 32005KT 02/M07 A303 RMK A01 T00151074  RH  051%=      5-min Rain = 0
KDC1 191110Z 32004KT 02/M08 A303 RMK A01 T00151075  RH  051%=      5-min Rain = 0
KDC1 191111Z 31003KT 01/M08 A3031 RMK A01 T00141075  RH  051%=      5-min Rain = 0
KDC1 191112Z 31003KT 01/M08 A3031 RMK A01 T00141075  RH  052%=      5-min Rain = 0
KDC1 191113Z 30003KT 01/M08 A3031 RMK A01 T00131076  RH  052%=      5-min Rain = 0
KDC1 191114Z 31003KT 01/M08 A3031 RMK A01 T00111076  RH  052%=      5-min Rain = 0
KDC1 191115Z 31003KT 01/M08 A3031 RMK A01 T00101076  RH  053%=      5-min Rain = 0
KDC1 191116Z 31002KT 01/M08 A3031 RMK A01 T00111075  RH  053%=      5-min Rain = 0
KDC1 191117Z 32003KT 01/M08 A3031 RMK A01 T00121075  RH  052%=      5-min Rain = 0
KDC1 191118Z 33003KT 01/M08 A3031 RMK A01 T00111075  RH  053%=      5-min Rain = 0
KDC1 191119Z 32003KT 01/M08 A3031 RMK A01 T00101075  RH  053%=      5-min Rain = 0
KDC1 191120Z 32003KT 01/M08 A3031 RMK A01 T00091075  RH  054%=      5-min Rain = 0
KDC1 191121Z 32004KT 01/M07 A3031 RMK A01 T00091074  RH  054%=      5-min Rain = 0
KDC1 191122Z 33004KT 01/M07 A3031 RMK A01 T00091074  RH  054%=      5-min Rain = 0
KDC1 191123Z 32005KT 01/M08 A3031 RMK A01 T00091075  RH  053%=      5-min Rain = 0
KDC1 191124Z 33004KT 01/M08 A3031 RMK A01 T00091075  RH  053%=      5-min Rain = 0
KDC1 191125Z 32004KT 01/M08 A3031 RMK A01 T00091075  RH  053%=      5-min Rain = 0
KDC1 191126Z 32005KT 01/M08 A3031 RMK A01 T00091076  RH  053%=      5-min Rain = 0
KDC1 191127Z 33005KT 01/M08 A3031 RMK A01 T00091076  RH  053%=      5-min Rain = 0
KDC1 191128Z 33005KT 01/M08 A3031 RMK A01 T00091076  RH  053%=      5-min Rain = 0
KDC1 191129Z 33006KT 01/M08 A3031 RMK A01 T00081075  RH  054%=      5-min Rain = 0
KDC1 191130Z 34006KT 01/M08 A3031 RMK A01 T00061076  RH  054%=      5-min Rain = 0
KDC1 191131Z 34006KT 00/M08 A3031 RMK A01 T00041075  RH  055%=      5-min Rain = 0
KDC1 191132Z 33006KT 00/M07 A3031 RMK A01 T00031074  RH  056%=      5-min Rain = 0
KDC1 191133Z 33007KT 00/M07 A3031 RMK A01 T00031074  RH  056%=      5-min Rain = 0
KDC1 191134Z 33007KT 00/M07 A3031 RMK A01 T00021073  RH  057%=      5-min Rain = 0
KDC1 191135Z 33008KT 00/M07 A3031 RMK A01 T00021073  RH  057%=      5-min Rain = 0
KDC1 191136Z 33008KT 00/M07 A3031 RMK A01 T00011072  RH  058%=      5-min Rain = 0
KDC1 191137Z 33007KT 00/M07 A3031 RMK A01 T00011072  RH  058%=      5-min Rain = 0
KDC1 191138Z 33007KT 00/07 A3031 RMK A01 T00000-72  RH  058%=      5-min Rain = 0
KDC1 191139Z 33006KT M00/M07 A3031 RMK A01 T10011072  RH  059%=      5-min Rain = 0
KDC1 191140Z 33006KT M00/M07 A3031 RMK A01 T10031072  RH  060%=      5-min Rain = 0
KDC1 191141Z 34006KT M00/M07 A3031 RMK A01 T10031072  RH  060%=      5-min Rain = 0
KDC1 191142Z 34006KT M00/M07 A3031 RMK A01 T10021071  RH  060%=      5-min Rain = 0
KDC1 191143Z 34006KT M00/M07 A3031 RMK A01 T10021071  RH  059%=      5-min Rain = 0
KDC1 191144Z 33006KT M00/M07 A3031 RMK A01 T10011071  RH  059%=      5-min Rain = 0
KDC1 191145Z 33006KT 00/07 A3031 RMK A01 T00-00-71  RH  059%=      5-min Rain = 0
KDC1 191146Z 33006KT M00/M07 A3031 RMK A01 T10021072  RH  059%=      5-min Rain = 0
KDC1 191147Z 34005KT M00/M07 A3031 RMK A01 T10041072  RH  060%=      5-min Rain = 0
KDC1 191148Z 33006KT M01/M07 A3031 RMK A01 T10061072  RH  061%=      5-min Rain = 0
KDC1 191149Z 33006KT M01/M07 A3031 RMK A01 T10071072  RH  061%=      5-min Rain = 0
KDC1 191150Z 34006KT M01/M07 A3031 RMK A01 T10081072  RH  062%=      5-min Rain = 0
KDC1 191151Z 34006KT M01/M07 A3031 RMK A01 T10101073  RH  063%=      5-min Rain = 0
KDC1 191152Z 33005KT M01/M07 A3031 RMK A01 T10111072  RH  063%=      5-min Rain = 0
KDC1 191153Z 33005KT M01/M07 A3031 RMK A01 T10091072  RH  063%=      5-min Rain = 0
KDC1 191154Z 33006KT M01/M07 A3031 RMK A01 T10071072  RH  061%=      5-min Rain = 0
KDC1 191155Z 32006KT M01/M07 A3031 RMK A01 T10061072  RH  061%=      5-min Rain = 0
KDC1 191156Z 33006KT M01/M07 A3031 RMK A01 T10081073  RH  061%=      5-min Rain = 0
KDC1 191157Z 33005KT M01/M07 A3031 RMK A01 T10091074  RH  062%=      5-min Rain = 0
KDC1 191158Z 33005KT M01/M07 A3031 RMK A01 T10101073  RH  062%=      5-min Rain = 0
KDC1 191159Z 34004KT M01/M07 A3031 RMK A01 T10091073  RH  062%=      5-min Rain = 0
KDC1 191200Z 34004KT M01/M07 A3031 RMK A01 T10081073  RH  061%=      5-min Rain = 0
KDC1 191201Z 34005KT M01/M07 A3031 RMK A01 T10081073  RH  061%=      5-min Rain = 0
KDC1 191202Z 33006KT M01/M07 A3031 RMK A01 T10081073  RH  061%=      5-min Rain = 0
KDC1 191203Z 33006KT M01/M07 A3032 RMK A01 T10081073  RH  061%=      5-min Rain = 0
KDC1 191204Z 34005KT M01/M07 A3032 RMK A01 T10061073  RH  060%=      5-min Rain = 0
KDC1 191205Z 33004KT M01/M07 A3032 RMK A01 T10051073  RH  060%=      5-min Rain = 0
KDC1 191206Z 33004KT M00/M07 A3032 RMK A01 T10021073  RH  059%=      5-min Rain = 0
KDC1 191207Z 33004KT 00/07 A3032 RMK A01 T00000-72  RH  058%=      5-min Rain = 0
KDC1 191208Z 32005KT 00/07 A3032 RMK A01 T00000-73  RH  058%=      5-min Rain = 0
KDC1 191209Z 32006KT 00/07 A3032 RMK A01 T00-00-74  RH  058%=      5-min Rain = 0
KDC1 191210Z 33005KT M00/M08 A3032 RMK A01 T10021075  RH  058%=      5-min Rain = 0
KDC1 191211Z 33005KT M00/M07 A3032 RMK A01 T10041074  RH  059%=      5-min Rain = 0
KDC1 191212Z 34005KT M00/M07 A3032 RMK A01 T10031073  RH  059%=      5-min Rain = 0
KDC1 191213Z 34004KT M00/M07 A3032 RMK A01 T10021073  RH  059%=      5-min Rain = 0
KDC1 191214Z 35004KT M00/M07 A3032 RMK A01 T10011073  RH  058%=      5-min Rain = 0
KDC1 191215Z 35004KT M00/M07 A3032 RMK A01 T10011074  RH  058%=      5-min Rain = 0
KDC1 191216Z 35004KT M00/M07 A3032 RMK A01 T10011073  RH  058%=      5-min Rain = 0
KDC1 191217Z 35005KT M00/M07 A3032 RMK A01 T10011073  RH  058%=      5-min Rain = 0
KDC1 191218Z 35005KT M00/M07 A3032 RMK A01 T10021074  RH  058%=      5-min Rain = 0
KDC1 191219Z 34005KT M00/M07 A3032 RMK A01 T10021074  RH  058%=      5-min Rain = 0
KDC1 191220Z 34005KT M00/M08 A3032 RMK A01 T10031075  RH  058%=      5-min Rain = 0
KDC1 191221Z 34005KT M00/M07 A3032 RMK A01 T10021074  RH  058%=      5-min Rain = 0
KDC1 191222Z 35005KT M00/M07 A3032 RMK A01 T10021074  RH  058%=      5-min Rain = 0
KDC1 191223Z 35005KT M00/M07 A3033 RMK A01 T10021074  RH  058%=      5-min Rain = 0
KDC1 191224Z 34006KT M00/M08 A3033 RMK A01 T10031075  RH  058%=      5-min Rain = 0
KDC1 191225Z 34006KT M00/M08 A3033 RMK A01 T10041075  RH  059%=      5-min Rain = 0
KDC1 191226Z 33006KT M00/M07 A3033 RMK A01 T10041074  RH  059%=      5-min Rain = 0
KDC1 191227Z 33006KT M00/M07 A3033 RMK A01 T10031074  RH  059%=      5-min Rain = 0
KDC1 191228Z 33006KT M00/M07 A3033 RMK A01 T10021074  RH  058%=      5-min Rain = 0
KDC1 191229Z 33006KT M00/M08 A3033 RMK A01 T10031075  RH  058%=      5-min Rain = 0
KDC1 191230Z 34006KT M00/M08 A3033 RMK A01 T10031075  RH  058%=      5-min Rain = 0
KDC1 191231Z 34006KT M00/M08 A3033 RMK A01 T10021075  RH  058%=      5-min Rain = 0
KDC1 191232Z 34005KT M00/M07 A3033 RMK A01 T10021074  RH  058%=      5-min Rain = 0
KDC1 191233Z 34005KT M00/M07 A3033 RMK A01 T10011074  RH  058%=      5-min Rain = 0
KDC1 191234Z 34006KT M00/M07 A3033 RMK A01 T10011074  RH  058%=      5-min Rain = 0
KDC1 191235Z 34006KT M00/M07 A3033 RMK A01 T10011074  RH  058%=      5-min Rain = 0
KDC1 191236Z 33006KT M00/M07 A3033 RMK A01 T10011074  RH  058%=      5-min Rain = 0
KDC1 191237Z 33006KT M00/M07 A3033 RMK A01 T10011073  RH  058%=      5-min Rain = 0
KDC1 191238Z 34006KT M00/M07 A3033 RMK A01 T10021073  RH  059%=      5-min Rain = 0
KDC1 191239Z 34005KT M00/M07 A3033 RMK A01 T10031074  RH  059%=      5-min Rain = 0
KDC1 191240Z 33005KT M00/M07 A3033 RMK A01 T10041074  RH  059%=      5-min Rain = 0
KDC1 191241Z 33005KT M01/M07 A3033 RMK A01 T10051074  RH  060%=      5-min Rain = 0
KDC1 191242Z 34005KT M01/M07 A3033 RMK A01 T10061073  RH  060%=      5-min Rain = 0
KDC1 191243Z 33006KT M01/M07 A3033 RMK A01 T10061074  RH  060%=      5-min Rain = 0
KDC1 191244Z 34006KT M01/M07 A3033 RMK A01 T10061073  RH  060%=      5-min Rain = 0
KDC1 191245Z 34005KT M01/M07 A3033 RMK A01 T10051073  RH  060%=      5-min Rain = 0
KDC1 191246Z 34005KT M00/M07 A3033 RMK A01 T10041073  RH  060%=      5-min Rain = 0
KDC1 191247Z 34004KT M00/M07 A3033 RMK A01 T10041073  RH  060%=      5-min Rain = 0
KDC1 191248Z 34005KT M00/M07 A3033 RMK A01 T10041073  RH  060%=      5-min Rain = 0
KDC1 191249Z 33005KT M00/M07 A3033 RMK A01 T10041073  RH  060%=      5-min Rain = 0
KDC1 191250Z 34005KT M00/M07 A3033 RMK A01 T10031073  RH  059%=      5-min Rain = 0
KDC1 191251Z 34005KT M00/M07 A3033 RMK A01 T10031073  RH  059%=      5-min Rain = 0
KDC1 191252Z 33004KT M00/M07 A3034 RMK A01 T10021073  RH  059%=      5-min Rain = 0
KDC1 191253Z 33005KT M00/M07 A3034 RMK A01 T10031074  RH  059%=      5-min Rain = 0
KDC1 191254Z 34005KT M00/M07 A3034 RMK A01 T10041074  RH  059%=      5-min Rain = 0
KDC1 191255Z 33005KT M01/M07 A3034 RMK A01 T10061074  RH  060%=      5-min Rain = 0
KDC1 191256Z 33005KT M01/M07 A3034 RMK A01 T10071074  RH  060%=      5-min Rain = 0
KDC1 191257Z 33005KT M01/M07 A3034 RMK A01 T10071073  RH  061%=      5-min Rain = 0
KDC1 191258Z 33006KT M01/M07 A3034 RMK A01 T10081073  RH  061%=      5-min Rain = 0
KDC1 191259Z 33006KT M01/M07 A3034 RMK A01 T10081073  RH  061%=      5-min Rain = 0
KDC1 191300Z 33006KT M01/M07 A3034 RMK A01 T10071072  RH  061%=      5-min Rain = 0
KDC1 191301Z 33006KT M01/M07 A3034 RMK A01 T10071073  RH  061%=      5-min Rain = 0
KDC1 191302Z 33007KT M01/M07 A3034 RMK A01 T10071073  RH  061%=      5-min Rain = 0
KDC1 191303Z 33007KT M01/M07 A3034 RMK A01 T10081073  RH  061%=      5-min Rain = 0
KDC1 191304Z 33007KT M01/M07 A3034 RMK A01 T10081073  RH  061%=      5-min Rain = 0
KDC1 191305Z 33007KT M01/M07 A3034 RMK A01 T10071073  RH  061%=      5-min Rain = 0
KDC1 191306Z 33007KT M01/M07 A3034 RMK A01 T10071073  RH  061%=      5-min Rain = 0
KDC1 191307Z 33008KT M01/M07 A3034 RMK A01 T10061073  RH  061%=      5-min Rain = 0
KDC1 191308Z 33007KT M01/M07 A3034 RMK A01 T10071073  RH  061%=      5-min Rain = 0
KDC1 191309Z 33008KT M01/M07 A3034 RMK A01 T10061073  RH  061%=      5-min Rain = 0
KDC1 191310Z 33007KT M01/M07 A3034 RMK A01 T10071073  RH  061%=      5-min Rain = 0
KDC1 191311Z 33007KT M01/M07 A3034 RMK A01 T10081073  RH  061%=      5-min Rain = 0
KDC1 191312Z 33007KT M01/M07 A3034 RMK A01 T10081073  RH  061%=      5-min Rain = 0
KDC1 191313Z 33007KT M01/M07 A3034 RMK A01 T10091073  RH  062%=      5-min Rain = 0
KDC1 191314Z 33006KT M01/M07 A3035 RMK A01 T10091073  RH  062%=      5-min Rain = 0
KDC1 191315Z 33006KT M01/M07 A3035 RMK A01 T10101072  RH  063%=      5-min Rain = 0
KDC1 191316Z 33005KT M01/M07 A3035 RMK A01 T10111072  RH  063%=      5-min Rain = 0
KDC1 191317Z 33005KT M01/M07 A3035 RMK A01 T10131072  RH  064%=      5-min Rain = 0
KDC1 191318Z 33005KT M02/M07 A3035 RMK A01 T10151072  RH  065%=      5-min Rain = 0
KDC1 191319Z 33004KT M02/M07 A3035 RMK A01 T10161072  RH  066%=      5-min Rain = 0
KDC1 191320Z 32004KT M02/M07 A3035 RMK A01 T10171072  RH  066%=      5-min Rain = 0
KDC1 191321Z 33004KT M02/M07 A3035 RMK A01 T10171071  RH  067%=      5-min Rain = 0
KDC1 191322Z 33005KT M02/M07 A3035 RMK A01 T10171071  RH  067%=      5-min Rain = 0
KDC1 191323Z 34005KT M02/M07 A3035 RMK A01 T10161071  RH  066%=      5-min Rain = 0
KDC1 191324Z 33005KT M02/M07 A3035 RMK A01 T10151072  RH  065%=      5-min Rain = 0
KDC1 191325Z 33006KT M02/M07 A3035 RMK A01 T10151072  RH  065%=      5-min Rain = 0
KDC1 191326Z 33006KT M01/M07 A3035 RMK A01 T10141073  RH  064%=      5-min Rain = 0
KDC1 191327Z 33005KT M01/M07 A3035 RMK A01 T10131073  RH  064%=      5-min Rain = 0
KDC1 191328Z 32005KT M01/M07 A3035 RMK A01 T10131073  RH  064%=      5-min Rain = 0
KDC1 191329Z 32004KT M01/M07 A3035 RMK A01 T10121073  RH  063%=      5-min Rain = 0
KDC1 191330Z 31004KT M01/M07 A3035 RMK A01 T10121072  RH  064%=      5-min Rain = 0
KDC1 191331Z 31004KT M01/M07 A3035 RMK A01 T10131072  RH  064%=      5-min Rain = 0
KDC1 191332Z 32004KT M01/M07 A3036 RMK A01 T10141073  RH  064%=      5-min Rain = 0
KDC1 191333Z 33004KT M02/M07 A3036 RMK A01 T10151073  RH  064%=      5-min Rain = 0
KDC1 191334Z 33004KT M02/M07 A3036 RMK A01 T10151073  RH  064%=      5-min Rain = 0
KDC1 191335Z 32004KT M02/M07 A3036 RMK A01 T10151073  RH  065%=      5-min Rain = 0
KDC1 191336Z 32004KT M02/M07 A3036 RMK A01 T10161073  RH  065%=      5-min Rain = 0
KDC1 191337Z 33004KT M02/M07 A3036 RMK A01 T10161073  RH  065%=      5-min Rain = 0
KDC1 191338Z 33005KT M02/M07 A3036 RMK A01 T10161072  RH  065%=      5-min Rain = 0
KDC1 191339Z 33005KT M02/M07 A3036 RMK A01 T10161072  RH  065%=      5-min Rain = 0
KDC1 191340Z 33005KT M02/M07 A3036 RMK A01 T10151072  RH  065%=      5-min Rain = 0
KDC1 191341Z 33005KT M01/M07 A3036 RMK A01 T10141072  RH  065%=      5-min Rain = 0
KDC1 191342Z 34005KT M01/M07 A3036 RMK A01 T10141073  RH  064%=      5-min Rain = 0
KDC1 191343Z 34005KT M01/M07 A3036 RMK A01 T10141073  RH  064%=      5-min Rain = 0
KDC1 191344Z 33005KT M01/M07 A3036 RMK A01 T10141074  RH  064%=      5-min Rain = 0
KDC1 191345Z 33005KT M01/M07 A3036 RMK A01 T10131074  RH  063%=      5-min Rain = 0
KDC1 191346Z 33006KT M01/M07 A3036 RMK A01 T10131074  RH  063%=      5-min Rain = 0
KDC1 191347Z 33006KT M01/M07 A3036 RMK A01 T10101073  RH  062%=      5-min Rain = 0
KDC1 191348Z 32006KT M01/M07 A3036 RMK A01 T10081073  RH  062%=      5-min Rain = 0
KDC1 191349Z 32006KT M01/M07 A3036 RMK A01 T10081074  RH  061%=      5-min Rain = 0
KDC1 191350Z 32007KT M01/M07 A3036 RMK A01 T10081074  RH  061%=      5-min Rain = 0
KDC1 191351Z 32007KT M01/M07 A3036 RMK A01 T10091074  RH  062%=      5-min Rain = 0
KDC1 191352Z 31007KT M01/M08 A3036 RMK A01 T10141077  RH  062%=      5-min Rain = 0
KDC1 191353Z 31007KT M02/M08 A3036 RMK A01 T10191078  RH  064%=      5-min Rain = 0
KDC1 191354Z 31007KT M02/M08 A3036 RMK A01 T10221077  RH  066%=      5-min Rain = 0
KDC1 191355Z 32008KT M02/M08 A3036 RMK A01 T10231076  RH  067%=      5-min Rain = 0
KDC1 191356Z 32008KT M02/M07 A3036 RMK A01 T10211073  RH  067%=      5-min Rain = 0
KDC1 191357Z 32007KT M02/M07 A3036 RMK A01 T10181073  RH  066%=      5-min Rain = 0
KDC1 191358Z 31006KT M02/M08 A3036 RMK A01 T10191075  RH  065%=      5-min Rain = 0
KDC1 191359Z 30005KT M02/M08 A3036 RMK A01 T10211076  RH  066%=      5-min Rain = 0
KDC1 191400Z 30005KT M02/M08 A3036 RMK A01 T10241077  RH  067%=      5-min Rain = 0
KDC1 191401Z 30006KT M03/M08 A3036 RMK A01 T10261077  RH  068%=      5-min Rain = 0
KDC1 191402Z 30006KT M03/M08 A3036 RMK A01 T10281078  RH  069%=      5-min Rain = 0
KDC1 191403Z 30006KT M03/M08 A3036 RMK A01 T10281078  RH  069%=      5-min Rain = 0
KDC1 191404Z 30006KT M03/M08 A3036 RMK A01 T10291078  RH  069%=      5-min Rain = 0
KDC1 191405Z 30007KT M03/M08 A3036 RMK A01 T10291078  RH  069%=      5-min Rain = 0
KDC1 191406Z 30007KT M03/M08 A3036 RMK A01 T10281078  RH  068%=      5-min Rain = 0
KDC1 191407Z 30007KT M03/M08 A3036 RMK A01 T10271078  RH  068%=      5-min Rain = 0
KDC1 191408Z 30007KT M03/M08 A3036 RMK A01 T10261078  RH  067%=      5-min Rain = 0
KDC1 191409Z 30007KT M03/M08 A3036 RMK A01 T10251078  RH  067%=      5-min Rain = 0
KDC1 191410Z 30008KT M02/M08 A3037 RMK A01 T10241078  RH  066%=      5-min Rain = 0
KDC1 191411Z 30008KT M02/M08 A3037 RMK A01 T10231078  RH  066%=      5-min Rain = 0
KDC1 191412Z 30007KT M02/M08 A3037 RMK A01 T10231077  RH  066%=      5-min Rain = 0
KDC1 191413Z 30007KT M02/M08 A3037 RMK A01 T10221076  RH  066%=      5-min Rain = 0
KDC1 191414Z 30006KT M02/M08 A3037 RMK A01 T10221076  RH  066%=      5-min Rain = 0
KDC1 191415Z 30006KT M02/M08 A3037 RMK A01 T10211076  RH  066%=      5-min Rain = 0
KDC1 191416Z 29006KT M02/M08 A3037 RMK A01 T10201075  RH  066%=      5-min Rain = 0
KDC1 191417Z 29006KT M02/M08 A3037 RMK A01 T10201075  RH  066%=      5-min Rain = 0
KDC1 191418Z 29006KT M02/M08 A3037 RMK A01 T10201075  RH  066%=      5-min Rain = 0
KDC1 191419Z 29006KT M02/M08 A3037 RMK A01 T10201075  RH  066%=      5-min Rain = 0
KDC1 191420Z 30006KT M02/M08 A3037 RMK A01 T10201075  RH  066%=      5-min Rain = 0
KDC1 191421Z 30006KT M02/M07 A3037 RMK A01 T10191074  RH  066%=      5-min Rain = 0
KDC1 191422Z 30006KT M02/M07 A3037 RMK A01 T10181073  RH  066%=      5-min Rain = 0
KDC1 191423Z 30007KT M02/M07 A3037 RMK A01 T10171073  RH  066%=      5-min Rain = 0
KDC1 191424Z 30007KT M02/M07 A3037 RMK A01 T10171073  RH  066%=      5-min Rain = 0
KDC1 191425Z 29007KT M02/M07 A3037 RMK A01 T10161072  RH  065%=      5-min Rain = 0
KDC1 191426Z 30007KT M02/M07 A3037 RMK A01 T10151072  RH  065%=      5-min Rain = 0
KDC1 191427Z 29007KT M02/M07 A3037 RMK A01 T10151072  RH  065%=      5-min Rain = 0
KDC1 191428Z 30006KT M02/M07 A3038 RMK A01 T10151072  RH  065%=      5-min Rain = 0
KDC1 191429Z 30006KT M01/M07 A3037 RMK A01 T10141072  RH  065%=      5-min Rain = 0
KDC1 191430Z 30006KT M01/M07 A3037 RMK A01 T10141072  RH  065%=      5-min Rain = 0
KDC1 191431Z 31007KT M01/M07 A3037 RMK A01 T10141071  RH  065%=      5-min Rain = 0
KDC1 191432Z 31007KT M01/M07 A3037 RMK A01 T10131071  RH  065%=      5-min Rain = 0
KDC1 191433Z 31007KT M01/M07 A3037 RMK A01 T10121071  RH  065%=      5-min Rain = 0
KDC1 191434Z 31007KT M01/M07 A3037 RMK A01 T10121070  RH  064%=      5-min Rain = 0
KDC1 191435Z 31007KT M01/M07 A3037 RMK A01 T10111070  RH  064%=      5-min Rain = 0
KDC1 191436Z 31007KT M01/M07 A3038 RMK A01 T10101070  RH  064%=      5-min Rain = 0
KDC1 191437Z 31007KT M01/M07 A3038 RMK A01 T10091069  RH  064%=      5-min Rain = 0
KDC1 191438Z 31006KT M01/M07 A3038 RMK A01 T10081069  RH  063%=      5-min Rain = 0
KDC1 191439Z 31006KT M01/M07 A3038 RMK A01 T10071068  RH  063%=      5-min Rain = 0
KDC1 191440Z 30005KT M01/M07 A3038 RMK A01 T10071068  RH  063%=      5-min Rain = 0
KDC1 191441Z 30005KT M01/M07 A3038 RMK A01 T10061068  RH  063%=      5-min Rain = 0
KDC1 191442Z 30005KT M01/M07 A3038 RMK A01 T10051068  RH  063%=      5-min Rain = 0
KDC1 191443Z 30005KT M01/M07 A3038 RMK A01 T10051068  RH  062%=      5-min Rain = 0
KDC1 191444Z 30005KT M00/M07 A3038 RMK A01 T10041068  RH  062%=      5-min Rain = 0
KDC1 191445Z 30005KT M00/M07 A3038 RMK A01 T10031068  RH  062%=      5-min Rain = 0
KDC1 191446Z 30004KT M00/M07 A3038 RMK A01 T10021068  RH  061%=      5-min Rain = 0
KDC1 191447Z 30004KT M00/M07 A3038 RMK A01 T10021068  RH  061%=      5-min Rain = 0
KDC1 191448Z 30005KT M00/M07 A3038 RMK A01 T10021069  RH  061%=      5-min Rain = 0
KDC1 191449Z 31004KT M00/M07 A3038 RMK A01 T10011069  RH  060%=      5-min Rain = 0
KDC1 191450Z 31004KT M00/M07 A3038 RMK A01 T10011068  RH  060%=      5-min Rain = 0
KDC1 191451Z 30004KT 00/07 A3038 RMK A01 T00-00-67  RH  061%=      5-min Rain = 0
KDC1 191452Z 30004KT 00/M07 A3038 RMK A01 T00011067  RH  060%=      5-min Rain = 0
KDC1 191453Z 29004KT 00/M07 A3038 RMK A01 T00011066  RH  060%=      5-min Rain = 0
KDC1 191454Z 29004KT 00/M07 A3038 RMK A01 T00021066  RH  060%=      5-min Rain = 0
KDC1 191455Z 27003KT 00/M07 A3038 RMK A01 T00031066  RH  060%=      5-min Rain = 0
KDC1 191456Z 27003KT 00/M07 A3038 RMK A01 T00031065  RH  060%=      5-min Rain = 0
KDC1 191457Z 26004KT 00/M07 A3038 RMK A01 T00041066  RH  060%=      5-min Rain = 0
KDC1 191458Z 27003KT 00/M07 A3038 RMK A01 T00041067  RH  059%=      5-min Rain = 0
KDC1 191459Z 27004KT 00/M07 A3039 RMK A01 T00041066  RH  059%=      5-min Rain = 0
KDC1 191500Z 28003KT 01/M07 A3039 RMK A01 T00051066  RH  059%=      5-min Rain = 0
KDC1 191501Z 27003KT 01/M07 A3039 RMK A01 T00061066  RH  059%=      5-min Rain = 0
KDC1 191502Z 27003KT 01/M07 A3039 RMK A01 T00061066  RH  058%=      5-min Rain = 0
KDC1 191503Z 27004KT 01/M07 A3039 RMK A01 T00071065  RH  058%=      5-min Rain = 0
KDC1 191504Z 27004KT 01/M06 A3039 RMK A01 T00081064  RH  058%=      5-min Rain = 0
KDC1 191505Z 28005KT 01/M06 A3038 RMK A01 T00091064  RH  058%=      5-min Rain = 0
KDC1 191506Z 28005KT 01/M06 A3038 RMK A01 T00111064  RH  057%=      5-min Rain = 0
KDC1 191507Z 28005KT 01/M07 A3038 RMK A01 T00121065  RH  057%=      5-min Rain = 0
KDC1 191508Z 28005KT 01/M06 A3038 RMK A01 T00131064  RH  056%=      5-min Rain = 0
KDC1 191509Z 28005KT 02/M06 A3038 RMK A01 T00151064  RH  056%=      5-min Rain = 0
KDC1 191510Z 27005KT 02/M07 A3039 RMK A01 T00161065  RH  055%=      5-min Rain = 0
KDC1 191511Z 27005KT 02/M06 A3039 RMK A01 T00161064  RH  055%=      5-min Rain = 0
KDC1 191512Z 27004KT 02/M06 A3039 RMK A01 T00181063  RH  055%=      5-min Rain = 0
KDC1 191513Z 25004KT 02/M06 A3039 RMK A01 T00191062  RH  055%=      5-min Rain = 0
KDC1 191514Z 17003KT 02/M06 A3039 RMK A01 T00201063  RH  054%=      5-min Rain = 0
KDC1 191515Z 15006KT 02/M06 A3039 RMK A01 T00221060  RH  055%=      5-min Rain = 0
KDC1 191516Z 15007KT 02/M06 A304 RMK A01 T00231058  RH  055%=      5-min Rain = 0
KDC1 191517Z 15006KT 02/M06 A304 RMK A01 T00211058  RH  056%=      5-min Rain = 0
KDC1 191518Z 19004KT 02/M06 A304 RMK A01 T00201058  RH  056%=      5-min Rain = 0
KDC1 191519Z 26004KT 02/M06 A3039 RMK A01 T00211060  RH  055%=      5-min Rain = 0
KDC1 191520Z 27006KT 02/M06 A3039 RMK A01 T00221063  RH  054%=      5-min Rain = 0
KDC1 191521Z 28005KT 02/M06 A3039 RMK A01 T00231063  RH  053%=      5-min Rain = 0
KDC1 191522Z 28006KT 02/M06 A3039 RMK A01 T00241062  RH  053%=      5-min Rain = 0
KDC1 191523Z 27005KT 03/M06 A3039 RMK A01 T00251062  RH  052%=      5-min Rain = 0
KDC1 191524Z 22003KT 03/M06 A304 RMK A01 T00261062  RH  052%=      5-min Rain = 0
KDC1 191525Z 16004KT 03/M06 A304 RMK A01 T00281059  RH  053%=      5-min Rain = 0
KDC1 191526Z 14005KT 03/M06 A304 RMK A01 T00311056  RH  053%=      5-min Rain = 0
KDC1 191527Z 15004KT 03/M05 A304 RMK A01 T00311054  RH  054%=      5-min Rain = 0
KDC1 191528Z 17003KT 03/M05 A304 RMK A01 T00311052  RH  054%=      5-min Rain = 0
KDC1 191529Z 22002KT 03/M06 A304 RMK A01 T00311057  RH  052%=      5-min Rain = 0
KDC1 191530Z 29003KT 03/M06 A304 RMK A01 T00321060  RH  051%=      5-min Rain = 0
KDC1 191531Z 30004KT 03/M06 A304 RMK A01 T00321062  RH  050%=      5-min Rain = 0
KDC1 191532Z 30004KT 03/M06 A304 RMK A01 T00321060  RH  051%=      5-min Rain = 0
KDC1 191533Z 30003KT 03/M06 A304 RMK A01 T00321059  RH  051%=      5-min Rain = 0
KDC1 191534Z 27003KT 03/M06 A304 RMK A01 T00321058  RH  052%=      5-min Rain = 0
KDC1 191535Z 22002KT 03/M06 A304 RMK A01 T00321057  RH  052%=      5-min Rain = 0
KDC1 191536Z 18002KT 03/M06 A304 RMK A01 T00331055  RH  052%=      5-min Rain = 0
KDC1 191537Z 18003KT 04/M06 A304 RMK A01 T00351055  RH  052%=      5-min Rain = 0
KDC1 191538Z 18002KT 04/M06 A304 RMK A01 T00361055  RH  051%=      5-min Rain = 0
KDC1 191539Z 18002KT 04/M06 A304 RMK A01 T00371058  RH  050%=      5-min Rain = 0
KDC1 191540Z 26001KT 04/M06 A304 RMK A01 T00371058  RH  050%=      5-min Rain = 0
KDC1 191541Z 29001KT 04/M06 A304 RMK A01 T00371059  RH  049%=      5-min Rain = 0
KDC1 191542Z 27001KT 04/M06 A304 RMK A01 T00371059  RH  049%=      5-min Rain = 0
KDC1 191543Z 26001KT 04/M06 A3041 RMK A01 T00371058  RH  050%=      5-min Rain = 0
KDC1 191544Z 25001KT 04/M06 A3041 RMK A01 T00371058  RH  050%=      5-min Rain = 0
KDC1 191545Z 19001KT 04/M06 A3041 RMK A01 T00381056  RH  050%=      5-min Rain = 0
KDC1 191546Z 18002KT 04/M06 A3041 RMK A01 T00391056  RH  050%=      5-min Rain = 0
KDC1 191547Z 18002KT 04/M06 A3041 RMK A01 T00401055  RH  050%=      5-min Rain = 0
KDC1 191548Z 20002KT 04/M05 A3041 RMK A01 T00411054  RH  050%=      5-min Rain = 0
KDC1 191549Z 22002KT 04/M05 A3041 RMK A01 T00411054  RH  050%=      5-min Rain = 0
KDC1 191550Z 22002KT 04/M06 A3041 RMK A01 T00421055  RH  049%=      5-min Rain = 0
KDC1 191551Z 21002KT 04/M05 A3041 RMK A01 T00421054  RH  049%=      5-min Rain = 0
KDC1 191552Z 22003KT 04/M05 A3041 RMK A01 T00431054  RH  049%=      5-min Rain = 0
KDC1 191553Z 20001KT 04/M06 A3041 RMK A01 T00441055  RH  049%=      5-min Rain = 0
KDC1 191554Z 21003KT 04/M06 A3041 RMK A01 T00441055  RH  049%=      5-min Rain = 0
KDC1 191555Z 21002KT 05/M06 A3041 RMK A01 T00451056  RH  048%=      5-min Rain = 0
KDC1 191556Z 26002KT 05/M06 A3041 RMK A01 T00461055  RH  048%=      5-min Rain = 0
KDC1 191557Z 26002KT 05/M06 A3041 RMK A01 T00461055  RH  048%=      5-min Rain = 0
KDC1 191558Z 21001KT 05/M05 A3041 RMK A01 T00471054  RH  048%=      5-min Rain = 0
KDC1 191559Z 17001KT 05/M05 A3041 RMK A01 T00481053  RH  048%=      5-min Rain = 0
KDC1 191600Z 18002KT 05/M05 A3041 RMK A01 T00501052  RH  048%=      5-min Rain = 0
KDC1 191601Z 18002KT 05/M05 A3041 RMK A01 T00511052  RH  047%=      5-min Rain = 0
KDC1 191602Z 13003KT 05/M05 A3041 RMK A01 T00531051  RH  047%=      5-min Rain = 0
KDC1 191603Z 13003KT 05/M05 A3041 RMK A01 T00541049  RH  047%=      5-min Rain = 0
KDC1 191604Z 13001KT 05/M05 A3041 RMK A01 T00541050  RH  047%=      5-min Rain = 0
KDC1 191605Z 11000KT 06/M05 A3041 RMK A01 T00561050  RH  046%=      5-min Rain = 0
KDC1 191606Z 16001KT 06/M05 A3041 RMK A01 T00571051  RH  046%=      5-min Rain = 0
KDC1 191607Z 17003KT 06/M05 A3041 RMK A01 T00591050  RH  046%=      5-min Rain = 0
KDC1 191608Z 19002KT 06/M05 A3041 RMK A01 T00591052  RH  045%=      5-min Rain = 0
KDC1 191609Z 19002KT 06/M05 A3041 RMK A01 T00581051  RH  045%=      5-min Rain = 0
KDC1 191610Z 18003KT 06/M05 A3041 RMK A01 T00591050  RH  046%=      5-min Rain = 0
KDC1 191611Z 18004KT 06/M05 A3041 RMK A01 T00601049  RH  046%=      5-min Rain = 0
KDC1 191612Z 18004KT 06/M05 A3041 RMK A01 T00611049  RH  045%=      5-min Rain = 0
KDC1 191613Z 19002KT 06/M05 A3041 RMK A01 T00631050  RH  044%=      5-min Rain = 0
KDC1 191614Z 21002KT 07/M05 A3042 RMK A01 T00651048  RH  044%=      5-min Rain = 0
KDC1 191615Z 20004KT 07/M05 A3042 RMK A01 T00671050  RH  043%=      5-min Rain = 0
KDC1 191616Z 20002KT 07/M05 A3042 RMK A01 T00681053  RH  042%=      5-min Rain = 0
KDC1 191617Z 20003KT 07/M05 A3042 RMK A01 T00681052  RH  042%=      5-min Rain = 0
KDC1 191618Z 20003KT 07/M05 A3042 RMK A01 T00691053  RH  041%=      5-min Rain = 0
KDC1 191619Z 21001KT 07/M05 A3042 RMK A01 T00691054  RH  041%=      5-min Rain = 0
KDC1 191620Z 15003KT 07/M06 A3042 RMK A01 T00701055  RH  041%=      5-min Rain = 0
KDC1 191621Z 14005KT 07/M05 A3042 RMK A01 T00711052  RH  041%=      5-min Rain = 0
KDC1 191622Z 16004KT 07/M05 A3042 RMK A01 T00711048  RH  042%=      5-min Rain = 0
KDC1 191623Z 14005KT 07/M04 A3042 RMK A01 T00711044  RH  044%=      5-min Rain = 0
KDC1 191624Z 14005KT 07/M04 A3042 RMK A01 T00701042  RH  045%=      5-min Rain = 0
KDC1 191625Z 14005KT 07/M04 A3042 RMK A01 T00671044  RH  045%=      5-min Rain = 0
KDC1 191626Z 15005KT 07/M04 A3042 RMK A01 T00661042  RH  046%=      5-min Rain = 0
KDC1 191627Z 15004KT 07/M04 A3042 RMK A01 T00651042  RH  046%=      5-min Rain = 0
KDC1 191628Z 16004KT 07/M05 A3042 RMK A01 T00651045  RH  045%=      5-min Rain = 0
KDC1 191629Z 17004KT 07/M05 A3042 RMK A01 T00661045  RH  045%=      5-min Rain = 0
KDC1 191630Z 17004KT 07/M04 A3042 RMK A01 T00671043  RH  045%=      5-min Rain = 0
KDC1 191631Z 17004KT 07/M05 A3042 RMK A01 T00681045  RH  045%=      5-min Rain = 0
KDC1 191632Z 15005KT 07/M05 A3042 RMK A01 T00681046  RH  044%=      5-min Rain = 0
KDC1 191633Z 16004KT 07/M05 A3042 RMK A01 T00681045  RH  044%=      5-min Rain = 0
KDC1 191634Z 15003KT 07/M04 A3042 RMK A01 T00681043  RH  045%=      5-min Rain = 0
KDC1 191635Z 19003KT 07/M05 A3042 RMK A01 T00691045  RH  044%=      5-min Rain = 0
KDC1 191636Z 17003KT 07/M05 A3042 RMK A01 T00701046  RH  043%=      5-min Rain = 0
KDC1 191637Z 17003KT 07/M05 A3042 RMK A01 T00711047  RH  043%=      5-min Rain = 0
KDC1 191638Z 16004KT 07/M05 A3042 RMK A01 T00721047  RH  043%=      5-min Rain = 0
KDC1 191639Z 18003KT 07/M05 A3042 RMK A01 T00721048  RH  042%=      5-min Rain = 0
KDC1 191640Z 17004KT 07/M05 A3042 RMK A01 T00721048  RH  042%=      5-min Rain = 0
KDC1 191641Z 16003KT 07/M05 A3042 RMK A01 T00721048  RH  042%=      5-min Rain = 0
KDC1 191642Z 18004KT 07/M05 A3042 RMK A01 T00721048  RH  042%=      5-min Rain = 0
KDC1 191643Z 19004KT 07/M05 A3042 RMK A01 T00731048  RH  042%=      5-min Rain = 0
KDC1 191644Z 18003KT 07/M05 A3042 RMK A01 T00741049  RH  041%=      5-min Rain = 0
KDC1 191645Z 16004KT 08/M05 A3042 RMK A01 T00761046  RH  042%=      5-min Rain = 0
KDC1 191646Z 15005KT 08/M05 A3042 RMK A01 T00761049  RH  041%=      5-min Rain = 0
KDC1 191647Z 15005KT 08/M05 A3042 RMK A01 T00771047  RH  041%=      5-min Rain = 0
KDC1 191648Z 16004KT 08/M04 A3042 RMK A01 T00761044  RH  042%=      5-min Rain = 0
KDC1 191649Z 17003KT 08/M05 A3042 RMK A01 T00761049  RH  041%=      5-min Rain = 0
KDC1 191650Z 18003KT 08/M05 A3042 RMK A01 T00771051  RH  040%=      5-min Rain = 0
KDC1 191651Z 18002KT 08/M05 A3042 RMK A01 T00781048  RH  040%=      5-min Rain = 0
KDC1 191652Z 17004KT 08/M05 A3042 RMK A01 T00791046  RH  041%=      5-min Rain = 0
KDC1 191653Z 17004KT 08/M05 A3041 RMK A01 T00801046  RH  040%=      5-min Rain = 0
KDC1 191654Z 18004KT 08/M05 A3041 RMK A01 T00811051  RH  039%=      5-min Rain = 0
KDC1 191655Z 17003KT 08/M05 A3041 RMK A01 T00821045  RH  040%=      5-min Rain = 0
KDC1 191656Z 16004KT 08/M05 A3042 RMK A01 T00841045  RH  040%=      5-min Rain = 0
KDC1 191657Z 18005KT 09/M05 A3042 RMK A01 T00851050  RH  038%=      5-min Rain = 0
KDC1 191658Z 20003KT 08/M05 A3042 RMK A01 T00841051  RH  038%=      5-min Rain = 0
KDC1 191659Z 20002KT 08/M05 A3042 RMK A01 T00841053  RH  038%=      5-min Rain = 0
KDC1 191700Z 15004KT 08/M05 A3042 RMK A01 T00841048  RH  039%=      5-min Rain = 0
KDC1 191701Z 15004KT 09/M05 A3042 RMK A01 T00851046  RH  039%=      5-min Rain = 0
KDC1 191702Z 16004KT 09/M05 A3042 RMK A01 T00851048  RH  039%=      5-min Rain = 0
KDC1 191703Z 15003KT 09/M04 A3042 RMK A01 T00851044  RH  040%=      5-min Rain = 0
KDC1 191704Z 14004KT 09/M04 A3042 RMK A01 T00871042  RH  040%=      5-min Rain = 0
KDC1 191705Z 13003KT 09/M04 A3042 RMK A01 T00881043  RH  039%=      5-min Rain = 0
KDC1 191706Z 13004KT 09/M04 A3042 RMK A01 T00891042  RH  039%=      5-min Rain = 0
KDC1 191707Z 12004KT 09/M04 A3042 RMK A01 T00901044  RH  039%=      5-min Rain = 0
KDC1 191708Z 15005KT 09/M04 A3042 RMK A01 T00891044  RH  039%=      5-min Rain = 0
KDC1 191709Z 15006KT 09/M05 A3042 RMK A01 T00881047  RH  038%=      5-min Rain = 0
KDC1 191710Z 14004KT 09/M05 A3042 RMK A01 T00881050  RH  037%=      5-min Rain = 0
KDC1 191711Z 16003KT 09/M05 A3042 RMK A01 T00881048  RH  038%=      5-min Rain = 0
KDC1 191712Z 15003KT 09/M05 A3042 RMK A01 T00891048  RH  038%=      5-min Rain = 0
KDC1 191713Z 13003KT 09/M05 A3042 RMK A01 T00901049  RH  037%=      5-min Rain = 0
KDC1 191714Z 13002KT 09/M05 A3042 RMK A01 T00911046  RH  038%=      5-min Rain = 0
KDC1 191715Z 14003KT 09/M04 A3042 RMK A01 T00931043  RH  038%=      5-min Rain = 0
KDC1 191716Z 16004KT 10/M04 A3042 RMK A01 T00951040  RH  038%=      5-min Rain = 0
KDC1 191717Z 15004KT 10/M05 A3042 RMK A01 T00961046  RH  036%=      5-min Rain = 0
KDC1 191718Z 14005KT 10/M05 A3042 RMK A01 T00961045  RH  037%=      5-min Rain = 0
KDC1 191719Z 16005KT 09/M05 A3042 RMK A01 T00941049  RH  036%=      5-min Rain = 0
KDC1 191720Z 15005KT 09/M05 A3042 RMK A01 T00941051  RH  036%=      5-min Rain = 0
KDC1 191721Z 13004KT 09/M05 A3042 RMK A01 T00931052  RH  036%=      5-min Rain = 0
KDC1 191722Z 13003KT 09/M05 A3042 RMK A01 T00921052  RH  036%=      5-min Rain = 0
KDC1 191723Z 14006KT 09/M05 A3042 RMK A01 T00941048  RH  037%=      5-min Rain = 0
KDC1 191724Z 14006KT 10/M05 A3042 RMK A01 T00951045  RH  037%=      5-min Rain = 0
KDC1 191725Z 13006KT 10/M04 A3042 RMK A01 T00971041  RH  038%=      5-min Rain = 0
KDC1 191726Z 13006KT 10/M05 A3042 RMK A01 T00981045  RH  036%=      5-min Rain = 0
KDC1 191727Z 13004KT 10/M05 A3042 RMK A01 T00971050  RH  035%=      5-min Rain = 0
KDC1 191728Z 12003KT 10/M05 A3042 RMK A01 T00961051  RH  035%=      5-min Rain = 0
KDC1 191729Z 13003KT 10/M05 A3042 RMK A01 T00951052  RH  035%=      5-min Rain = 0
KDC1 191730Z 15004KT 10/M05 A3042 RMK A01 T00951049  RH  036%=      5-min Rain = 0
KDC1 191731Z 15006KT 10/M05 A3042 RMK A01 T00951049  RH  036%=      5-min Rain = 0
KDC1 191732Z 15004KT 10/M05 A3042 RMK A01 T00961049  RH  036%=      5-min Rain = 0
KDC1 191733Z 16004KT 10/M05 A3042 RMK A01 T00961050  RH  035%=      5-min Rain = 0
KDC1 191734Z 17002KT 10/M05 A3042 RMK A01 T00951051  RH  035%=      5-min Rain = 0
KDC1 191735Z 14004KT 10/M05 A3042 RMK A01 T00971048  RH  036%=      5-min Rain = 0
KDC1 191736Z 16006KT 10/M04 A3042 RMK A01 T00991044  RH  036%=      5-min Rain = 0
KDC1 191737Z 16006KT 10/M05 A3042 RMK A01 T01001046  RH  036%=      5-min Rain = 0
KDC1 191738Z 13004KT 10/M05 A3042 RMK A01 T00991050  RH  035%=      5-min Rain = 0
KDC1 191739Z 13005KT 10/M05 A3042 RMK A01 T00981049  RH  035%=      5-min Rain = 0
KDC1 191740Z 14004KT 10/M05 A3042 RMK A01 T00981047  RH  036%=      5-min Rain = 0
KDC1 191741Z 17006KT 10/M05 A3042 RMK A01 T00981047  RH  036%=      5-min Rain = 0
KDC1 191742Z 15007KT 10/M04 A3042 RMK A01 T01001043  RH  036%=      5-min Rain = 0
KDC1 191743Z 16008KT 10/M05 A3042 RMK A01 T01011047  RH  035%=      5-min Rain = 0
KDC1 191744Z 16006KT 10/M05 A3042 RMK A01 T01001049  RH  035%=      5-min Rain = 0
KDC1 191745Z 19004KT 10/M05 A3042 RMK A01 T00991052  RH  034%=      5-min Rain = 0
KDC1 191746Z 19003KT 10/M05 A3042 RMK A01 T00981054  RH  034%=      5-min Rain = 0
KDC1 191747Z 15005KT 10/M05 A3042 RMK A01 T00981048  RH  035%=      5-min Rain = 0
KDC1 191748Z 15007KT 10/M04 A3042 RMK A01 T01001044  RH  036%=      5-min Rain = 0
KDC1 191749Z 15005KT 10/M05 A3042 RMK A01 T00991050  RH  035%=      5-min Rain = 0
KDC1 191750Z 14005KT 10/M05 A3042 RMK A01 T00981048  RH  035%=      5-min Rain = 0
KDC1 191751Z 15004KT 10/M05 A3042 RMK A01 T00981050  RH  035%=      5-min Rain = 0
KDC1 191752Z 17003KT 10/M05 A3042 RMK A01 T00981050  RH  035%=      5-min Rain = 0
KDC1 191753Z 18004KT 10/M05 A3041 RMK A01 T00981049  RH  035%=      5-min Rain = 0
KDC1 191754Z 16003KT 10/M05 A3042 RMK A01 T00991049  RH  035%=      5-min Rain = 0
KDC1 191755Z 17002KT 10/M05 A3041 RMK A01 T01001050  RH  034%=      5-min Rain = 0
KDC1 191756Z 06001KT 10/M05 A3041 RMK A01 T01011045  RH  036%=      5-min Rain = 0
KDC1 191757Z 04001KT 10/M04 A3041 RMK A01 T01011043  RH  036%=      5-min Rain = 0
KDC1 191758Z 17001KT 10/M05 A3041 RMK A01 T01031045  RH  035%=      5-min Rain = 0
KDC1 191759Z 16001KT 11/M05 A3041 RMK A01 T01051049  RH  034%=      5-min Rain = 0
KDC1 191800Z 16004KT 11/M05 A3041 RMK A01 T01061047  RH  034%=      5-min Rain = 0
KDC1 191801Z 15005KT 11/M05 A3041 RMK A01 T01071045  RH  034%=      5-min Rain = 0
KDC1 191802Z 15004KT 11/M05 A3041 RMK A01 T01071048  RH  033%=      5-min Rain = 0
KDC1 191803Z 18006KT 11/M05 A3041 RMK A01 T01061048  RH  034%=      5-min Rain = 0
KDC1 191804Z 20005KT 11/M04 A3041 RMK A01 T01071044  RH  034%=      5-min Rain = 0
KDC1 191805Z 22006KT 11/M05 A3041 RMK A01 T01091048  RH  033%=      5-min Rain = 0
KDC1 191806Z 22005KT 11/M05 A3041 RMK A01 T01091053  RH  032%=      5-min Rain = 0
KDC1 191807Z 23003KT 11/M06 A3041 RMK A01 T01071056  RH  031%=      5-min Rain = 0
KDC1 191808Z 23001KT 11/M06 A3041 RMK A01 T01061057  RH  031%=      5-min Rain = 0
KDC1 191809Z 23001KT 11/M06 A3041 RMK A01 T01061055  RH  032%=      5-min Rain = 0
KDC1 191810Z 26003KT 11/M06 A3041 RMK A01 T01061055  RH  032%=      5-min Rain = 0
KDC1 191811Z 25005KT 11/M06 A3041 RMK A01 T01061055  RH  032%=      5-min Rain = 0
KDC1 191812Z 24004KT 11/M06 A3041 RMK A01 T01061055  RH  032%=      5-min Rain = 0
KDC1 191813Z 25003KT 11/M06 A3041 RMK A01 T01061056  RH  032%=      5-min Rain = 0
KDC1 191814Z 24004KT 11/M06 A3041 RMK A01 T01051056  RH  032%=      5-min Rain = 0
KDC1 191815Z 21004KT 11/M06 A3041 RMK A01 T01051055  RH  032%=      5-min Rain = 0
KDC1 191816Z 18003KT 11/M05 A3041 RMK A01 T01061054  RH  032%=      5-min Rain = 0
KDC1 191817Z 22005KT 11/M05 A3041 RMK A01 T01091050  RH  032%=      5-min Rain = 0
KDC1 191818Z 22004KT 11/M06 A3041 RMK A01 T01111055  RH  031%=      5-min Rain = 0
KDC1 191819Z 18001KT 11/M06 A3041 RMK A01 T01101057  RH  031%=      5-min Rain = 0
KDC1 191820Z 18002KT 11/M05 A3041 RMK A01 T01111053  RH  031%=      5-min Rain = 0
KDC1 191821Z 17004KT 11/M06 A3041 RMK A01 T01131055  RH  031%=      5-min Rain = 0
KDC1 191822Z 19006KT 11/M05 A3041 RMK A01 T01131047  RH  032%=      5-min Rain = 0
KDC1 191823Z 19004KT 12/M05 A3041 RMK A01 T01161045  RH  032%=      5-min Rain = 0
KDC1 191824Z 17002KT 12/M05 A3041 RMK A01 T01171048  RH  031%=      5-min Rain = 0
KDC1 191825Z 16002KT 12/M05 A3041 RMK A01 T01161052  RH  030%=      5-min Rain = 0
KDC1 191826Z 19003KT 12/M05 A3041 RMK A01 T01171050  RH  031%=      5-min Rain = 0
KDC1 191827Z 19003KT 12/M06 A3041 RMK A01 T01161055  RH  030%=      5-min Rain = 0
KDC1 191828Z 16004KT 12/M06 A3041 RMK A01 T01151055  RH  030%=      5-min Rain = 0
KDC1 191829Z 17003KT 12/M05 A3041 RMK A01 T01151054  RH  030%=      5-min Rain = 0
KDC1 191830Z 15003KT 12/M06 A304 RMK A01 T01151056  RH  030%=      5-min Rain = 0
KDC1 191831Z 15002KT 12/M06 A304 RMK A01 T01151057  RH  030%=      5-min Rain = 0
KDC1 191832Z 13002KT 11/M06 A304 RMK A01 T01141057  RH  030%=      5-min Rain = 0
KDC1 191833Z 13002KT 12/M05 A304 RMK A01 T01151054  RH  030%=      5-min Rain = 0
KDC1 191834Z 18002KT 12/M05 A304 RMK A01 T01161052  RH  031%=      5-min Rain = 0
KDC1 191835Z 19001KT 12/M05 A304 RMK A01 T01191050  RH  030%=      5-min Rain = 0
KDC1 191836Z 20002KT 12/M05 A304 RMK A01 T01211049  RH  030%=      5-min Rain = 0
KDC1 191837Z 16003KT 12/M05 A304 RMK A01 T01221050  RH  030%=      5-min Rain = 0
KDC1 191838Z 18003KT 12/M05 A304 RMK A01 T01221051  RH  029%=      5-min Rain = 0
KDC1 191839Z 17006KT 12/M05 A304 RMK A01 T01211052  RH  030%=      5-min Rain = 0
KDC1 191840Z 19007KT 12/M05 A3039 RMK A01 T01191049  RH  030%=      5-min Rain = 0
KDC1 191841Z 19005KT 12/M05 A304 RMK A01 T01171053  RH  030%=      5-min Rain = 0
KDC1 191842Z 18004KT 12/M05 A3039 RMK A01 T01161053  RH  030%=      5-min Rain = 0
KDC1 191843Z 16005KT 12/M04 A3039 RMK A01 T01161044  RH  032%=      5-min Rain = 0
KDC1 191844Z 16006KT 12/M05 A3039 RMK A01 T01181051  RH  030%=      5-min Rain = 0
KDC1 191845Z 15005KT 12/M05 A3039 RMK A01 T01161050  RH  031%=      5-min Rain = 0
KDC1 191846Z 15005KT 12/M05 A3039 RMK A01 T01151054  RH  030%=      5-min Rain = 0
KDC1 191847Z 15006KT 11/M05 A3039 RMK A01 T01141053  RH  031%=      5-min Rain = 0
KDC1 191848Z 16006KT 11/M05 A3039 RMK A01 T01141051  RH  031%=      5-min Rain = 0
KDC1 191849Z 18006KT 11/M05 A3039 RMK A01 T01141051  RH  031%=      5-min Rain = 0
KDC1 191850Z 16004KT 12/M05 A3039 RMK A01 T01151049  RH  031%=      5-min Rain = 0
KDC1 191851Z 16007KT 12/M05 A3039 RMK A01 T01161051  RH  031%=      5-min Rain = 0
KDC1 191852Z 14007KT 12/M05 A3039 RMK A01 T01171052  RH  030%=      5-min Rain = 0
KDC1 191853Z 15006KT 12/M05 A3039 RMK A01 T01161052  RH  031%=      5-min Rain = 0
KDC1 191854Z 17004KT 12/M05 A3038 RMK A01 T01151053  RH  030%=      5-min Rain = 0
KDC1 191855Z 13003KT 12/M05 A3038 RMK A01 T01161051  RH  031%=      5-min Rain = 0
KDC1 191856Z 13006G14KT 12/M05 A3038 RMK A01 T01181049  RH  031%=      5-min Rain = 0
KDC1 191857Z 17009G15KT 12/M04 A3038 RMK A01 T01201042  RH  032%=      5-min Rain = 0
KDC1 191858Z 16006KT 12/M05 A3038 RMK A01 T01231046  RH  030%=      5-min Rain = 0
KDC1 191859Z 16006KT 12/M05 A3038 RMK A01 T01231050  RH  029%=      5-min Rain = 0
KDC1 191900Z 17006KT 12/M05 A3038 RMK A01 T01231048  RH  030%=      5-min Rain = 0
KDC1 191901Z 16007KT 12/M05 A3038 RMK A01 T01231051  RH  029%=      5-min Rain = 0
KDC1 191902Z 19006KT 12/M05 A3038 RMK A01 T01221053  RH  029%=      5-min Rain = 0
KDC1 191903Z 21006KT 12/M06 A3038 RMK A01 T01221057  RH  028%=      5-min Rain = 0
KDC1 191904Z 23003KT 12/M05 A3038 RMK A01 T01241054  RH  028%=      5-min Rain = 0
KDC1 191905Z 25004KT 13/M06 A3038 RMK A01 T01271055  RH  028%=      5-min Rain = 0
KDC1 191906Z 25003KT 13/M06 A3038 RMK A01 T01251060  RH  027%=      5-min Rain = 0
KDC1 191907Z 25002KT 12/M06 A3038 RMK A01 T01241057  RH  028%=      5-min Rain = 0
KDC1 191908Z 24002KT 13/M06 A3037 RMK A01 T01261057  RH  028%=      5-min Rain = 0
KDC1 191909Z 25002KT 13/M06 A3037 RMK A01 T01281057  RH  027%=      5-min Rain = 0
KDC1 191910Z 24001KT 13/M06 A3037 RMK A01 T01291057  RH  027%=      5-min Rain = 0
KDC1 191911Z 12002KT 13/M06 A3037 RMK A01 T01291055  RH  027%=      5-min Rain = 0
KDC1 191912Z 18004KT 13/M05 A3037 RMK A01 T01311053  RH  027%=      5-min Rain = 0
KDC1 191913Z 17005KT 13/M05 A3037 RMK A01 T01311054  RH  027%=      5-min Rain = 0
KDC1 191914Z 18008KT 13/M04 A3037 RMK A01 T01311044  RH  029%=      5-min Rain = 0
KDC1 191915Z 25007KT 13/M05 A3037 RMK A01 T01311053  RH  027%=      5-min Rain = 0
KDC1 191916Z 26008KT 13/M06 A3037 RMK A01 T01301058  RH  026%=      5-min Rain = 0
KDC1 191917Z 26005KT 13/M06 A3037 RMK A01 T01281062  RH  026%=      5-min Rain = 0
KDC1 191918Z 25003KT 13/M06 A3036 RMK A01 T01261063  RH  026%=      5-min Rain = 0
KDC1 191919Z 27003KT 13/M06 A3036 RMK A01 T01251064  RH  026%=      5-min Rain = 0
KDC1 191920Z 30002KT 12/M06 A3036 RMK A01 T01241064  RH  026%=      5-min Rain = 0
KDC1 191921Z 31003KT 12/M07 A3036 RMK A01 T01231065  RH  026%=      5-min Rain = 0
KDC1 191922Z 30002KT 12/M07 A3036 RMK A01 T01211066  RH  026%=      5-min Rain = 0
KDC1 191923Z 26001KT 12/M07 A3036 RMK A01 T01201065  RH  027%=      5-min Rain = 0
KDC1 191924Z 18003G8KT 12/M06 A3036 RMK A01 T01211061  RH  028%=      5-min Rain = 0
KDC1 191925Z 19007KT 13/M05 A3036 RMK A01 T01261054  RH  028%=      5-min Rain = 0
KDC1 191926Z 18007KT 13/M06 A3036 RMK A01 T01271056  RH  027%=      5-min Rain = 0
KDC1 191927Z 18005KT 13/M06 A3036 RMK A01 T01281058  RH  027%=      5-min Rain = 0
KDC1 191928Z 21003KT 13/M06 A3036 RMK A01 T01281057  RH  027%=      5-min Rain = 0
KDC1 191929Z 22005KT 13/M06 A3036 RMK A01 T01281060  RH  026%=      5-min Rain = 0
KDC1 191930Z 22006KT 13/M06 A3035 RMK A01 T01281060  RH  027%=      5-min Rain = 0
KDC1 191931Z 21005KT 13/M06 A3036 RMK A01 T01281059  RH  027%=      5-min Rain = 0
KDC1 191932Z 22002KT 13/M06 A3036 RMK A01 T01271061  RH  027%=      5-min Rain = 0
KDC1 191933Z 12002KT 13/M06 A3035 RMK A01 T01271058  RH  027%=      5-min Rain = 0
KDC1 191934Z 13003KT 13/M05 A3035 RMK A01 T01281052  RH  028%=      5-min Rain = 0
KDC1 191935Z 15003KT 13/M05 A3035 RMK A01 T01291048  RH  029%=      5-min Rain = 0
KDC1 191936Z 10002KT 13/M05 A3035 RMK A01 T01311049  RH  028%=      5-min Rain = 0
KDC1 191937Z 10003KT 13/M05 A3035 RMK A01 T01311051  RH  028%=      5-min Rain = 0
KDC1 191938Z 08005KT 13/M05 A3035 RMK A01 T01301051  RH  028%=      5-min Rain = 0
KDC1 191939Z 10006KT 13/M05 A3035 RMK A01 T01291053  RH  028%=      5-min Rain = 0
KDC1 191940Z 13006KT 13/M05 A3035 RMK A01 T01281046  RH  029%=      5-min Rain = 0
KDC1 191941Z 14006KT 13/M03 A3035 RMK A01 T01331034  RH  031%=      5-min Rain = 0
KDC1 191942Z 15007KT 13/M05 A3035 RMK A01 T01341045  RH  028%=      5-min Rain = 0
KDC1 191943Z 15007KT 13/M05 A3035 RMK A01 T01321046  RH  029%=      5-min Rain = 0
KDC1 191944Z 12007KT 13/M04 A3035 RMK A01 T01321042  RH  029%=      5-min Rain = 0
KDC1 191945Z 11005KT 13/M05 A3035 RMK A01 T01321049  RH  028%=      5-min Rain = 0
KDC1 191946Z 08004KT 13/M05 A3034 RMK A01 T01291054  RH  028%=      5-min Rain = 0
KDC1 191947Z 14006G11KT 13/M05 A3034 RMK A01 T01281048  RH  029%=      5-min Rain = 0
KDC1 191948Z 21006G12KT 13/M04 A3034 RMK A01 T01311044  RH  029%=      5-min Rain = 0
KDC1 191949Z 20002KT 13/M05 A3034 RMK A01 T01331049  RH  028%=      5-min Rain = 0
KDC1 191950Z 17004KT 14/M05 A3034 RMK A01 T01351052  RH  027%=      5-min Rain = 0
KDC1 191951Z 16006KT 14/M05 A3034 RMK A01 T01361049  RH  027%=      5-min Rain = 0
KDC1 191952Z 15004KT 14/M05 A3034 RMK A01 T01381051  RH  027%=      5-min Rain = 0
KDC1 191953Z 18007KT 14/M05 A3034 RMK A01 T01371054  RH  026%=      5-min Rain = 0
KDC1 191954Z 24008KT 14/M05 A3033 RMK A01 T01381050  RH  027%=      5-min Rain = 0
KDC1 191955Z 25005KT 14/M05 A3034 RMK A01 T01391051  RH  026%=      5-min Rain = 0
KDC1 191956Z 26003KT 14/M05 A3034 RMK A01 T01371053  RH  026%=      5-min Rain = 0
KDC1 191957Z 18002KT 14/M05 A3034 RMK A01 T01371053  RH  026%=      5-min Rain = 0
KDC1 191958Z 16003KT 14/M06 A3034 RMK A01 T01381056  RH  026%=      5-min Rain = 0
KDC1 191959Z 16004KT 14/M06 A3034 RMK A01 T01381055  RH  026%=      5-min Rain = 0
KDC1 192000Z 16005KT 14/M05 A3033 RMK A01 T01381053  RH  026%=      5-min Rain = 0
KDC1 192001Z 16004KT 14/M05 A3033 RMK A01 T01371052  RH  027%=      5-min Rain = 0
KDC1 192002Z 15005KT 14/M05 A3033 RMK A01 T01371050  RH  027%=      5-min Rain = 0
KDC1 192003Z 15004KT 14/M05 A3033 RMK A01 T01371052  RH  027%=      5-min Rain = 0
KDC1 192004Z 15004KT 14/M05 A3033 RMK A01 T01351054  RH  027%=      5-min Rain = 0
KDC1 192005Z 14000KT 14/M06 A3033 RMK A01 T01351058  RH  026%=      5-min Rain = 0
KDC1 192006Z 04000KT 13/M06 A3033 RMK A01 T01341058  RH  026%=      5-min Rain = 0
KDC1 192007Z 11003KT 14/M05 A3033 RMK A01 T01351054  RH  026%=      5-min Rain = 0
KDC1 192008Z 11006KT 14/M05 A3033 RMK A01 T01351054  RH  027%=      5-min Rain = 0
KDC1 192009Z 14005KT 13/M05 A3033 RMK A01 T01341051  RH  027%=      5-min Rain = 0
KDC1 192010Z 16004KT 14/M05 A3033 RMK A01 T01351052  RH  027%=      5-min Rain = 0
KDC1 192011Z 14004KT 14/M06 A3033 RMK A01 T01361055  RH  026%=      5-min Rain = 0
KDC1 192012Z 12007KT 14/M05 A3032 RMK A01 T01361051  RH  027%=      5-min Rain = 0
KDC1 192013Z 12005KT 14/M05 A3032 RMK A01 T01361054  RH  026%=      5-min Rain = 0
KDC1 192014Z 14003KT 13/M06 A3032 RMK A01 T01341057  RH  026%=      5-min Rain = 0
KDC1 192015Z 15003KT 13/M06 A3032 RMK A01 T01341055  RH  026%=      5-min Rain = 0
KDC1 192016Z 12003KT 14/M05 A3032 RMK A01 T01361053  RH  026%=      5-min Rain = 0
KDC1 192017Z 09005KT 14/M05 A3032 RMK A01 T01381045  RH  028%=      5-min Rain = 0
KDC1 192018Z 09005KT 14/M05 A3032 RMK A01 T01401051  RH  026%=      5-min Rain = 0
KDC1 192019Z 10006KT 14/M05 A3032 RMK A01 T01391054  RH  026%=      5-min Rain = 0
KDC1 192020Z 10005KT 14/M06 A3032 RMK A01 T01361057  RH  026%=      5-min Rain = 0
KDC1 192021Z 09004KT 13/M06 A3032 RMK A01 T01341056  RH  026%=      5-min Rain = 0
KDC1 192022Z 10004KT 13/M06 A3032 RMK A01 T01341056  RH  026%=      5-min Rain = 0
KDC1 192023Z 08003KT 13/M06 A3032 RMK A01 T01341057  RH  026%=      5-min Rain = 0
KDC1 192024Z 06002KT 14/M06 A3032 RMK A01 T01351056  RH  026%=      5-min Rain = 0
KDC1 192025Z 05003KT 14/M06 A3032 RMK A01 T01351057  RH  026%=      5-min Rain = 0
KDC1 192026Z 06001KT 14/M06 A3032 RMK A01 T01351057  RH  026%=      5-min Rain = 0
KDC1 192027Z 06003KT 14/M06 A3032 RMK A01 T01351057  RH  026%=      5-min Rain = 0
KDC1 192028Z 02001KT 14/M06 A3032 RMK A01 T01361058  RH  026%=      5-min Rain = 0
KDC1 192029Z 03000KT 14/M06 A3032 RMK A01 T01361056  RH  026%=      5-min Rain = 0
KDC1 192030Z 33001KT 14/M06 A3032 RMK A01 T01391055  RH  026%=      5-min Rain = 0
KDC1 192031Z 32003KT 14/M06 A3032 RMK A01 T01401058  RH  025%=      5-min Rain = 0
KDC1 192032Z 33002KT 14/M07 A3032 RMK A01 T01391065  RH  024%=      5-min Rain = 0
KDC1 192033Z 34000KT 14/M07 A3032 RMK A01 T01381067  RH  024%=      5-min Rain = 0
KDC1 192034Z 01000KT 14/M07 A3032 RMK A01 T01391066  RH  023%=      5-min Rain = 0
KDC1 192035Z 16001KT 14/M06 A3031 RMK A01 T01421060  RH  024%=      5-min Rain = 0
KDC1 192036Z 13001KT 15/M06 A3031 RMK A01 T01451061  RH  024%=      5-min Rain = 0
KDC1 192037Z 20001KT 15/M06 A3031 RMK A01 T01461061  RH  023%=      5-min Rain = 0
KDC1 192038Z 18001KT 15/M06 A3031 RMK A01 T01471060  RH  023%=      5-min Rain = 0
KDC1 192039Z 17001KT 15/M06 A3031 RMK A01 T01481060  RH  023%=      5-min Rain = 0
KDC1 192040Z 19001KT 15/M06 A3031 RMK A01 T01481060  RH  023%=      5-min Rain = 0
KDC1 192041Z 24001KT 15/M06 A3031 RMK A01 T01481060  RH  023%=      5-min Rain = 0
KDC1 192042Z 35005KT 15/M06 A3031 RMK A01 T01501060  RH  023%=      5-min Rain = 0
KDC1 192043Z 01005KT 15/M07 A3031 RMK A01 T01471066  RH  022%=      5-min Rain = 0
KDC1 192044Z 03005KT 14/M07 A3031 RMK A01 T01411068  RH  023%=      5-min Rain = 0
KDC1 192045Z 03003KT 14/M07 A3031 RMK A01 T01391066  RH  024%=      5-min Rain = 0
KDC1 192046Z 04003KT 14/M07 A3031 RMK A01 T01381065  RH  024%=      5-min Rain = 0
KDC1 192047Z 05003KT 14/M07 A3031 RMK A01 T01361065  RH  024%=      5-min Rain = 0
KDC1 192048Z 06000KT 14/M07 A3031 RMK A01 T01351065  RH  024%=      5-min Rain = 0
KDC1 192049Z 08003KT 14/M06 A3031 RMK A01 T01361064  RH  024%=      5-min Rain = 0
KDC1 192050Z 10002KT 14/M07 A3031 RMK A01 T01361065  RH  024%=      5-min Rain = 0
KDC1 192051Z 12001KT 14/M06 A3031 RMK A01 T01361064  RH  024%=      5-min Rain = 0
KDC1 192052Z 13001KT 14/M06 A3031 RMK A01 T01381063  RH  024%=      5-min Rain = 0
KDC1 192053Z 08002KT 14/M06 A3031 RMK A01 T01411062  RH  024%=      5-min Rain = 0
KDC1 192054Z 05004KT 14/M06 A3031 RMK A01 T01421060  RH  024%=      5-min Rain = 0
KDC1 192055Z 04004KT 14/M06 A3031 RMK A01 T01421061  RH  024%=      5-min Rain = 0
KDC1 192056Z 06006KT 14/M06 A3031 RMK A01 T01401061  RH  024%=      5-min Rain = 0
KDC1 192057Z 07004KT 14/M06 A3031 RMK A01 T01381063  RH  024%=      5-min Rain = 0
KDC1 192058Z 06004KT 14/M06 A303 RMK A01 T01371062  RH  025%=      5-min Rain = 0
KDC1 192059Z 08003KT 14/M06 A303 RMK A01 T01361061  RH  025%=      5-min Rain = 0
KDC1 192100Z 09002KT 14/M06 A303 RMK A01 T01371061  RH  025%=      5-min Rain = 0
KDC1 192101Z 03002KT 14/M06 A303 RMK A01 T01371060  RH  025%=      5-min Rain = 0
KDC1 192102Z 33004KT 14/M06 A303 RMK A01 T01381057  RH  025%=      5-min Rain = 0
KDC1 192103Z 30002KT 14/M06 A303 RMK A01 T01381058  RH  025%=      5-min Rain = 0
KDC1 192104Z 34001KT 14/M06 A303 RMK A01 T01381058  RH  025%=      5-min Rain = 0
KDC1 192105Z 08003KT 14/M06 A303 RMK A01 T01391057  RH  025%=      5-min Rain = 0
KDC1 192106Z 05004KT 14/M06 A303 RMK A01 T01401055  RH  025%=      5-min Rain = 0
KDC1 192107Z 06004KT 14/M06 A303 RMK A01 T01401055  RH  025%=      5-min Rain = 0
KDC1 192108Z 06003KT 14/M05 A303 RMK A01 T01391053  RH  026%=      5-min Rain = 0
KDC1 192109Z 04004KT 14/M05 A303 RMK A01 T01401053  RH  026%=      5-min Rain = 0
KDC1 192110Z 05006KT 14/M05 A303 RMK A01 T01401054  RH  026%=      5-min Rain = 0
KDC1 192111Z 06006KT 14/M06 A303 RMK A01 T01391057  RH  025%=      5-min Rain = 0
KDC1 192112Z 04005KT 14/M06 A303 RMK A01 T01381056  RH  026%=      5-min Rain = 0
KDC1 192113Z 03004KT 14/M06 A303 RMK A01 T01381055  RH  026%=      5-min Rain = 0
KDC1 192114Z 03004KT 14/M06 A303 RMK A01 T01381056  RH  025%=      5-min Rain = 0
KDC1 192115Z 02004KT 14/M06 A303 RMK A01 T01381061  RH  025%=      5-min Rain = 0
KDC1 192116Z 03003KT 14/M07 A303 RMK A01 T01381065  RH  024%=      5-min Rain = 0
KDC1 192117Z 03002KT 14/M06 A303 RMK A01 T01381064  RH  024%=      5-min Rain = 0
KDC1 192118Z 03004KT 14/M06 A303 RMK A01 T01381062  RH  024%=      5-min Rain = 0
KDC1 192119Z 01005KT 14/M06 A303 RMK A01 T01391063  RH  024%=      5-min Rain = 0
KDC1 192120Z 00005KT 14/M06 A3029 RMK A01 T01381064  RH  024%=      5-min Rain = 0
KDC1 192121Z 01005KT 14/M06 A3029 RMK A01 T01381063  RH  024%=      5-min Rain = 0
KDC1 192122Z 04003KT 14/M06 A3029 RMK A01 T01391061  RH  024%=      5-min Rain = 0
KDC1 192123Z 04006KT 14/M06 A303 RMK A01 T01411058  RH  025%=      5-min Rain = 0
KDC1 192124Z 07005KT 14/M06 A303 RMK A01 T01411059  RH  025%=      5-min Rain = 0
KDC1 192125Z 07005KT 14/M06 A303 RMK A01 T01401058  RH  025%=      5-min Rain = 0
KDC1 192126Z 09006KT 14/M06 A303 RMK A01 T01411057  RH  025%=      5-min Rain = 0
KDC1 192127Z 07005KT 14/M06 A303 RMK A01 T01431061  RH  024%=      5-min Rain = 0
KDC1 192128Z 08006KT 14/M06 A303 RMK A01 T01431061  RH  024%=      5-min Rain = 0
KDC1 192129Z 06004KT 14/M06 A303 RMK A01 T01431062  RH  024%=      5-min Rain = 0
KDC1 192130Z 08003KT 14/M06 A3029 RMK A01 T01411062  RH  024%=      5-min Rain = 0
KDC1 192131Z 10001KT 14/M06 A3029 RMK A01 T01411061  RH  024%=      5-min Rain = 0
KDC1 192132Z 13000KT 14/M06 A3029 RMK A01 T01421063  RH  024%=      5-min Rain = 0
KDC1 192133Z 07001KT 14/M06 A3029 RMK A01 T01431060  RH  024%=      5-min Rain = 0
KDC1 192134Z 03003KT 15/M06 A3029 RMK A01 T01471057  RH  024%=      5-min Rain = 0
KDC1 192135Z 01002KT 15/M06 A3029 RMK A01 T01481060  RH  023%=      5-min Rain = 0
KDC1 192136Z 34002KT 15/M06 A3029 RMK A01 T01491062  RH  023%=      5-min Rain = 0
KDC1 192137Z 02003KT 15/M06 A3029 RMK A01 T01471064  RH  023%=      5-min Rain = 0
KDC1 192138Z 04004KT 15/M07 A3029 RMK A01 T01451066  RH  023%=      5-min Rain = 0
KDC1 192139Z 04002KT 14/M07 A3029 RMK A01 T01441067  RH  023%=      5-min Rain = 0
KDC1 192140Z 01002KT 14/M07 A3029 RMK A01 T01431067  RH  023%=      5-min Rain = 0
KDC1 192141Z 30000KT 14/M07 A3029 RMK A01 T01421068  RH  023%=      5-min Rain = 0
KDC1 192142Z 21000KT 14/M07 A3029 RMK A01 T01421067  RH  023%=      5-min Rain = 0
KDC1 192143Z 30000KT 14/M07 A3029 RMK A01 T01421066  RH  023%=      5-min Rain = 0
KDC1 192144Z 33000KT 14/M06 A3029 RMK A01 T01441064  RH  023%=      5-min Rain = 0
KDC1 192145Z 14000KT 15/M06 A3029 RMK A01 T01461062  RH  023%=      5-min Rain = 0
KDC1 192146Z 14002KT 15/M06 A3029 RMK A01 T01471060  RH  023%=      5-min Rain = 0
KDC1 192147Z 13003KT 15/M06 A3029 RMK A01 T01481055  RH  024%=      5-min Rain = 0
KDC1 192148Z 13003KT 15/M06 A3029 RMK A01 T01481055  RH  024%=      5-min Rain = 0
KDC1 192149Z 11003KT 15/M06 A3029 RMK A01 T01471058  RH  024%=      5-min Rain = 0
KDC1 192150Z 10003KT 15/M06 A3028 RMK A01 T01461061  RH  023%=      5-min Rain = 0
KDC1 192151Z 10003KT 15/M06 A3028 RMK A01 T01451063  RH  023%=      5-min Rain = 0
KDC1 192152Z 10003KT 15/M06 A3028 RMK A01 T01451061  RH  023%=      5-min Rain = 0
KDC1 192153Z 06003KT 14/M06 A3028 RMK A01 T01441061  RH  024%=      5-min Rain = 0
KDC1 192154Z 02003KT 14/M06 A3028 RMK A01 T01441063  RH  023%=      5-min Rain = 0
KDC1 192155Z 03004KT 14/M06 A3028 RMK A01 T01441064  RH  023%=      5-min Rain = 0
KDC1 192156Z 02004KT 14/M06 A3028 RMK A01 T01441064  RH  023%=      5-min Rain = 0
KDC1 192157Z 36004KT 14/M06 A3028 RMK A01 T01441064  RH  023%=      5-min Rain = 0
KDC1 192158Z 36003KT 14/M07 A3028 RMK A01 T01431065  RH  023%=      5-min Rain = 0
KDC1 192159Z 02003KT 14/M06 A3028 RMK A01 T01431064  RH  023%=      5-min Rain = 0
KDC1 192200Z 03003KT 14/M06 A3028 RMK A01 T01441062  RH  024%=      5-min Rain = 0
KDC1 192201Z 36002KT 15/M07 A3028 RMK A01 T01451066  RH  023%=      5-min Rain = 0
KDC1 192202Z 36003KT 14/M07 A3028 RMK A01 T01441067  RH  023%=      5-min Rain = 0
KDC1 192203Z 00004KT 14/M07 A3028 RMK A01 T01431066  RH  023%=      5-min Rain = 0
KDC1 192204Z 03003KT 14/M06 A3028 RMK A01 T01431064  RH  023%=      5-min Rain = 0
KDC1 192205Z 04004KT 14/M06 A3028 RMK A01 T01431060  RH  024%=      5-min Rain = 0
KDC1 192206Z 05005KT 14/M06 A3028 RMK A01 T01431061  RH  024%=      5-min Rain = 0
KDC1 192207Z 03003KT 14/M06 A3028 RMK A01 T01431063  RH  023%=      5-min Rain = 0
KDC1 192208Z 03003KT 14/M06 A3028 RMK A01 T01421061  RH  024%=      5-min Rain = 0
KDC1 192209Z 02004KT 14/M06 A3028 RMK A01 T01431061  RH  024%=      5-min Rain = 0
KDC1 192210Z 05003KT 14/M06 A3028 RMK A01 T01431062  RH  024%=      5-min Rain = 0
KDC1 192211Z 06005KT 14/M06 A3028 RMK A01 T01431062  RH  024%=      5-min Rain = 0
KDC1 192212Z 07005KT 14/M06 A3028 RMK A01 T01431062  RH  024%=      5-min Rain = 0
KDC1 192213Z 08005KT 14/M06 A3028 RMK A01 T01431062  RH  024%=      5-min Rain = 0
KDC1 192214Z 08005KT 14/M06 A3028 RMK A01 T01431063  RH  024%=      5-min Rain = 0
KDC1 192215Z 09004KT 14/M07 A3028 RMK A01 T01431065  RH  023%=      5-min Rain = 0
KDC1 192216Z 11002KT 14/M07 A3028 RMK A01 T01411065  RH  023%=      5-min Rain = 0
KDC1 192217Z 13002KT 14/M06 A3028 RMK A01 T01411064  RH  024%=      5-min Rain = 0
KDC1 192218Z 14002KT 14/M06 A3028 RMK A01 T01421064  RH  024%=      5-min Rain = 0
KDC1 192219Z 13002KT 14/M06 A3028 RMK A01 T01441061  RH  024%=      5-min Rain = 0
KDC1 192220Z 11003KT 14/M06 A3028 RMK A01 T01441056  RH  025%=      5-min Rain = 0
KDC1 192221Z 10004KT 15/M05 A3028 RMK A01 T01451053  RH  025%=      5-min Rain = 0
KDC1 192222Z 11005KT 15/M06 A3028 RMK A01 T01461059  RH  024%=      5-min Rain = 0
KDC1 192223Z 12005KT 14/M06 A3028 RMK A01 T01441061  RH  024%=      5-min Rain = 0
KDC1 192224Z 12004KT 14/M06 A3028 RMK A01 T01431060  RH  024%=      5-min Rain = 0
KDC1 192225Z 12003KT 14/M06 A3028 RMK A01 T01421061  RH  024%=      5-min Rain = 0
KDC1 192226Z 13003KT 14/M06 A3028 RMK A01 T01421062  RH  024%=      5-min Rain = 0
KDC1 192227Z 11002KT 14/M06 A3028 RMK A01 T01421061  RH  024%=      5-min Rain = 0
KDC1 192228Z 13002KT 14/M06 A3028 RMK A01 T01421057  RH  025%=      5-min Rain = 0
KDC1 192229Z 12005KT 14/M06 A3028 RMK A01 T01421056  RH  025%=      5-min Rain = 0
KDC1 192230Z 11005KT 14/M06 A3028 RMK A01 T01421055  RH  025%=      5-min Rain = 0
KDC1 192231Z 10005KT 14/M06 A3028 RMK A01 T01411063  RH  024%=      5-min Rain = 0
KDC1 192232Z 09004KT 14/M06 A3028 RMK A01 T01411062  RH  024%=      5-min Rain = 0
KDC1 192233Z 10004KT 14/M06 A3028 RMK A01 T01411063  RH  024%=      5-min Rain = 0
KDC1 192234Z 09003KT 14/M06 A3028 RMK A01 T01411063  RH  024%=      5-min Rain = 0
KDC1 192235Z 06002KT 14/M07 A3028 RMK A01 T01411065  RH  023%=      5-min Rain = 0
KDC1 192236Z 07002KT 14/M07 A3028 RMK A01 T01401065  RH  024%=      5-min Rain = 0
KDC1 192237Z 08004KT 14/M06 A3028 RMK A01 T01411063  RH  024%=      5-min Rain = 0
KDC1 192238Z 07004KT 14/M06 A3028 RMK A01 T01411064  RH  024%=      5-min Rain = 0
KDC1 192239Z 09005KT 14/M06 A3028 RMK A01 T01411064  RH  024%=      5-min Rain = 0
KDC1 192240Z 09005KT 14/M06 A3028 RMK A01 T01411064  RH  024%=      5-min Rain = 0
KDC1 192241Z 07006KT 14/M06 A3028 RMK A01 T01411062  RH  024%=      5-min Rain = 0
KDC1 192242Z 06005KT 14/M06 A3028 RMK A01 T01421064  RH  023%=      5-min Rain = 0
KDC1 192243Z 06004KT 14/M06 A3028 RMK A01 T01421063  RH  024%=      5-min Rain = 0
KDC1 192244Z 07004KT 14/M06 A3028 RMK A01 T01421064  RH  024%=      5-min Rain = 0
KDC1 192245Z 08005KT 14/M07 A3028 RMK A01 T01411065  RH  023%=      5-min Rain = 0
KDC1 192246Z 08005KT 14/M07 A3028 RMK A01 T01411066  RH  023%=      5-min Rain = 0
KDC1 192247Z 08005KT 14/M07 A3028 RMK A01 T01421066  RH  023%=      5-min Rain = 0
KDC1 192248Z 09004KT 14/M07 A3028 RMK A01 T01421066  RH  023%=      5-min Rain = 0
KDC1 192249Z 10002KT 14/M07 A3028 RMK A01 T01421067  RH  023%=      5-min Rain = 0
KDC1 192250Z 08002KT 14/M07 A3028 RMK A01 T01421067  RH  023%=      5-min Rain = 0
KDC1 192251Z 08002KT 14/M07 A3028 RMK A01 T01411067  RH  023%=      5-min Rain = 0
KDC1 192252Z 11003KT 14/M06 A3028 RMK A01 T01411064  RH  024%=      5-min Rain = 0
KDC1 192253Z 12003KT 14/M05 A3028 RMK A01 T01421053  RH  026%=      5-min Rain = 0
KDC1 192254Z 12002KT 14/M06 A3028 RMK A01 T01421060  RH  024%=      5-min Rain = 0
KDC1 192255Z 09003KT 14/M06 A3028 RMK A01 T01421057  RH  025%=      5-min Rain = 0
KDC1 192256Z 11005KT 14/M06 A3028 RMK A01 T01421055  RH  025%=      5-min Rain = 0
KDC1 192257Z 12004KT 14/M05 A3028 RMK A01 T01431047  RH  027%=      5-min Rain = 0
KDC1 192258Z 12003KT 14/M05 A3028 RMK A01 T01431048  RH  026%=      5-min Rain = 0
KDC1 192259Z 14004KT 14/M06 A3028 RMK A01 T01431055  RH  025%=      5-min Rain = 0
KDC1 192300Z 12003KT 14/M06 A3028 RMK A01 T01421058  RH  025%=      5-min Rain = 0
KDC1 192301Z 10004KT 14/M05 A3028 RMK A01 T01421051  RH  026%=      5-min Rain = 0
KDC1 192302Z 09004KT 14/M06 A3028 RMK A01 T01421060  RH  024%=      5-min Rain = 0
KDC1 192303Z 09003KT 14/M06 A3028 RMK A01 T01421063  RH  024%=      5-min Rain = 0
KDC1 192304Z 10002KT 14/M06 A3028 RMK A01 T01411064  RH  024%=      5-min Rain = 0
KDC1 192305Z 10001KT 14/M06 A3028 RMK A01 T01411062  RH  024%=      5-min Rain = 0
KDC1 192306Z 10001KT 14/M06 A3028 RMK A01 T01411060  RH  024%=      5-min Rain = 0
KDC1 192307Z 12002KT 14/M06 A3028 RMK A01 T01421061  RH  024%=      5-min Rain = 0
KDC1 192308Z 12002KT 14/M06 A3028 RMK A01 T01421057  RH  025%=      5-min Rain = 0
KDC1 192309Z 12001KT 14/M05 A3028 RMK A01 T01421054  RH  025%=      5-min Rain = 0
KDC1 192310Z 13001KT 14/M06 A3028 RMK A01 T01421056  RH  025%=      5-min Rain = 0
KDC1 192311Z 13000KT 14/M07 A3028 RMK A01 T01421065  RH  023%=      5-min Rain = 0
KDC1 192312Z 12000KT 14/M07 A3028 RMK A01 T01441066  RH  023%=      5-min Rain = 0
KDC1 192313Z 12001KT 15/M06 A3028 RMK A01 T01451063  RH  023%=      5-min Rain = 0
KDC1 192314Z 14001KT 15/M06 A3028 RMK A01 T01461061  RH  023%=      5-min Rain = 0
KDC1 192315Z 14000KT 15/M06 A3028 RMK A01 T01481059  RH  023%=      5-min Rain = 0
KDC1 192316Z 00000KT 15/M05 A3028 RMK A01 T01491054  RH  024%=      5-min Rain = 0
KDC1 192317Z 09000KT 15/M05 A3028 RMK A01 T01501051  RH  025%=      5-min Rain = 0
KDC1 192318Z 00000KT 15/M05 A3028 RMK A01 T01541050  RH  024%=      5-min Rain = 0
KDC1 192319Z 00000KT 16/M05 A3028 RMK A01 T01561052  RH  023%=      5-min Rain = 0
KDC1 192320Z 15001KT 16/M04 A3028 RMK A01 T01571043  RH  025%=      5-min Rain = 0
KDC1 192321Z 15001KT 16/M06 A3028 RMK A01 T01551057  RH  023%=      5-min Rain = 0
KDC1 192322Z 15001KT 15/M06 A3028 RMK A01 T01531058  RH  023%=      5-min Rain = 0
KDC1 192323Z 14001KT 15/M05 A3028 RMK A01 T01521052  RH  024%=      5-min Rain = 0
KDC1 192324Z 13000KT 15/M06 A3028 RMK A01 T01511059  RH  023%=      5-min Rain = 0
KDC1 192325Z 12002KT 15/M06 A3028 RMK A01 T01511057  RH  023%=      5-min Rain = 0
KDC1 192326Z 12001KT 15/M05 A3028 RMK A01 T01501052  RH  024%=      5-min Rain = 0
KDC1 192327Z 11000KT 15/M05 A3028 RMK A01 T01491047  RH  026%=      5-min Rain = 0
KDC1 192328Z 09001KT 15/M04 A3028 RMK A01 T01481041  RH  027%=      5-min Rain = 0
KDC1 192329Z 10001KT 15/M04 A3028 RMK A01 T01481038  RH  027%=      5-min Rain = 0
KDC1 192330Z 10002KT 15/M05 A3028 RMK A01 T01461046  RH  026%=      5-min Rain = 0
KDC1 192331Z 11002KT 14/M05 A3028 RMK A01 T01431050  RH  026%=      5-min Rain = 0
KDC1 192332Z 12002KT 14/M05 A3028 RMK A01 T01421050  RH  026%=      5-min Rain = 0
KDC1 192333Z 12002KT 14/M05 A3028 RMK A01 T01421051  RH  026%=      5-min Rain = 0
KDC1 192334Z 12002KT 14/M05 A3028 RMK A01 T01411053  RH  026%=      5-min Rain = 0
KDC1 192335Z 13001KT 14/M05 A3028 RMK A01 T01401048  RH  027%=      5-min Rain = 0
KDC1 192336Z 12001KT 14/M05 A3028 RMK A01 T01401046  RH  027%=      5-min Rain = 0
KDC1 192337Z 12001KT 14/M04 A3028 RMK A01 T01391039  RH  029%=      5-min Rain = 0
KDC1 192338Z 13001KT 14/M04 A3028 RMK A01 T01391037  RH  029%=      5-min Rain = 0
KDC1 192339Z 12001KT 14/M03 A3028 RMK A01 T01381032  RH  031%=      5-min Rain = 0
KDC1 192340Z 11001KT 14/M05 A3028 RMK A01 T01371045  RH  028%=      5-min Rain = 0
KDC1 192341Z 11001KT 14/M04 A3028 RMK A01 T01371042  RH  029%=      5-min Rain = 0
KDC1 192342Z 11001KT 14/M04 A3028 RMK A01 T01371042  RH  029%=      5-min Rain = 0
KDC1 192343Z 11001KT 14/M04 A3029 RMK A01 T01371039  RH  029%=      5-min Rain = 0
KDC1 192344Z 12001KT 14/M04 A3029 RMK A01 T01371038  RH  029%=      5-min Rain = 0
KDC1 192345Z 13000KT 14/M04 A3029 RMK A01 T01361036  RH  030%=      5-min Rain = 0
KDC1 192346Z 13000KT 14/M04 A3028 RMK A01 T01361040  RH  029%=      5-min Rain = 0
KDC1 192347Z 00000KT 14/M06 A3028 RMK A01 T01351055  RH  026%=      5-min Rain = 0
KDC1 192348Z 00000KT 14/M06 A3028 RMK A01 T01351064  RH  025%=      5-min Rain = 0
KDC1 192349Z 00000KT 13/M06 A3028 RMK A01 T01341056  RH  026%=      5-min Rain = 0
KDC1 192350Z 12000KT 13/M05 A3028 RMK A01 T01341053  RH  027%=      5-min Rain = 0
KDC1 192351Z 12000KT 13/M05 A3028 RMK A01 T01341052  RH  027%=      5-min Rain = 0
KDC1 192352Z 11000KT 13/M05 A3028 RMK A01 T01341048  RH  028%=      5-min Rain = 0
KDC1 192353Z 00000KT 13/M04 A3028 RMK A01 T01341039  RH  030%=      5-min Rain = 0
KDC1 192354Z 00000KT 13/M03 A3028 RMK A01 T01331034  RH  031%=      5-min Rain = 0
KDC1 192355Z 00000KT 13/M05 A3028 RMK A01 T01321047  RH  028%=      5-min Rain = 0
KDC1 192356Z 00000KT 13/M05 A3028 RMK A01 T01321050  RH  028%=      5-min Rain = 0
KDC1 192357Z 00000KT 13/M05 A3028 RMK A01 T01321051  RH  028%=      5-min Rain = 0
KDC1 192358Z 09000KT 13/M06 A3028 RMK A01 T01311057  RH  027%=      5-min Rain = 0
KDC1 192359Z 08000KT 13/M05 A3028 RMK A01 T01311052  RH  028%=      5-min Rain = 0
KDC1 200000Z 08000KT 13/M05 A3028 RMK A01 T01311050  RH  028%=      5-min Rain = 0
KDC1 200001Z 00000KT 13/M06 A3028 RMK A01 T01311062  RH  026%=      5-min Rain = 0
KDC1 200002Z 00000KT 13/M06 A3028 RMK A01 T01301060  RH  026%=      5-min Rain = 0
KDC1 200003Z 00000KT 13/M06 A3028 RMK A01 T01311061  RH  026%=      5-min Rain = 0
KDC1 200004Z 00000KT 13/M06 A3028 RMK A01 T01301061  RH  026%=      5-min Rain = 0
KDC1 200005Z 00000KT 13/M06 A3028 RMK A01 T01301061  RH  026%=      5-min Rain = 0
KDC1 200006Z 09000KT 13/M06 A3028 RMK A01 T01301064  RH  025%=      5-min Rain = 0
KDC1 200007Z 10001KT 13/M07 A3028 RMK A01 T01311065  RH  025%=      5-min Rain = 0
KDC1 200008Z 11002KT 13/M06 A3028 RMK A01 T01321064  RH  025%=      5-min Rain = 0
KDC1 200009Z 11001KT 13/M07 A3028 RMK A01 T01321067  RH  025%=      5-min Rain = 0
KDC1 200010Z 10001KT 13/M06 A3028 RMK A01 T01321064  RH  025%=      5-min Rain = 0
KDC1 200011Z 08001KT 13/M06 A3028 RMK A01 T01321061  RH  026%=      5-min Rain = 0
KDC1 200012Z 07001KT 13/M06 A3028 RMK A01 T01311061  RH  026%=      5-min Rain = 0
KDC1 200013Z 05001KT 13/M06 A3028 RMK A01 T01301056  RH  027%=      5-min Rain = 0
KDC1 200014Z 04001KT 13/M06 A3028 RMK A01 T01281057  RH  027%=      5-min Rain = 0
KDC1 200015Z 04001KT 13/M06 A3028 RMK A01 T01281057  RH  027%=      5-min Rain = 0
KDC1 200016Z 04002KT 13/M06 A3028 RMK A01 T01281058  RH  027%=      5-min Rain = 0
KDC1 200017Z 06002KT 13/M06 A3028 RMK A01 T01271056  RH  027%=      5-min Rain = 0
KDC1 200018Z 09002KT 13/M06 A3028 RMK A01 T01261056  RH  028%=      5-min Rain = 0
KDC1 200019Z 09002KT 13/M05 A3028 RMK A01 T01251054  RH  028%=      5-min Rain = 0
KDC1 200020Z 10002KT 13/M05 A3028 RMK A01 T01251050  RH  029%=      5-min Rain = 0
KDC1 200021Z 10002KT 13/M05 A3028 RMK A01 T01251050  RH  029%=      5-min Rain = 0
KDC1 200022Z 08002KT 13/M05 A3028 RMK A01 T01251049  RH  029%=      5-min Rain = 0
KDC1 200023Z 02002KT 12/M05 A3028 RMK A01 T01241053  RH  029%=      5-min Rain = 0
KDC1 200024Z 00003KT 12/M07 A3028 RMK A01 T01241065  RH  026%=      5-min Rain = 0
KDC1 200025Z 35003KT 13/M07 A3028 RMK A01 T01251067  RH  026%=      5-min Rain = 0
KDC1 200026Z 34003KT 12/M07 A3028 RMK A01 T01241065  RH  026%=      5-min Rain = 0
KDC1 200027Z 32004KT 12/M06 A3028 RMK A01 T01231064  RH  027%=      5-min Rain = 0
KDC1 200028Z 32004KT 12/M06 A3028 RMK A01 T01181061  RH  028%=      5-min Rain = 0
KDC1 200029Z 32003KT 11/M06 A3028 RMK A01 T01111059  RH  030%=      5-min Rain = 0
KDC1 200030Z 32002KT 11/M06 A3028 RMK A01 T01081064  RH  029%=      5-min Rain = 0
KDC1 200031Z 32002KT 11/M06 A3028 RMK A01 T01081063  RH  029%=      5-min Rain = 0
KDC1 200032Z 31003KT 11/M07 A3028 RMK A01 T01081066  RH  029%=      5-min Rain = 0
KDC1 200033Z 31003KT 11/M07 A3028 RMK A01 T01091069  RH  028%=      5-min Rain = 0
KDC1 200034Z 31002KT 11/M07 A3028 RMK A01 T01111069  RH  028%=      5-min Rain = 0
KDC1 200035Z 29003KT 11/M07 A3028 RMK A01 T01121071  RH  027%=      5-min Rain = 0
KDC1 200036Z 30004KT 11/M08 A3028 RMK A01 T01131077  RH  026%=      5-min Rain = 0
KDC1 200037Z 30003KT 12/M08 A3028 RMK A01 T01161079  RH  025%=      5-min Rain = 0
KDC1 200038Z 30003KT 12/M08 A3028 RMK A01 T01171075  RH  025%=      5-min Rain = 0
KDC1 200039Z 29004KT 12/M07 A3028 RMK A01 T01151067  RH  027%=      5-min Rain = 0
KDC1 200040Z 29003KT 11/M06 A3028 RMK A01 T01081062  RH  030%=      5-min Rain = 0
KDC1 200041Z 29004KT 10/M06 A3028 RMK A01 T01031062  RH  031%=      5-min Rain = 0
KDC1 200042Z 30004KT 10/M06 A3029 RMK A01 T01011060  RH  032%=      5-min Rain = 0
KDC1 200043Z 31005KT 10/M06 A3029 RMK A01 T00981057  RH  033%=      5-min Rain = 0
KDC1 200044Z 32003KT 10/M06 A3029 RMK A01 T00991057  RH  033%=      5-min Rain = 0
KDC1 200045Z 33002KT 10/M06 A3029 RMK A01 T01041058  RH  032%=      5-min Rain = 0
KDC1 200046Z 33002KT 11/M06 A3029 RMK A01 T01051056  RH  032%=      5-min Rain = 0
KDC1 200047Z 31002KT 10/M06 A3029 RMK A01 T01031057  RH  032%=      5-min Rain = 0
KDC1 200048Z 29004KT 10/M06 A3029 RMK A01 T00971055  RH  034%=      5-min Rain = 0
KDC1 200049Z 30004KT 09/M05 A3029 RMK A01 T00891053  RH  036%=      5-min Rain = 0
KDC1 200050Z 29003KT 09/M05 A3029 RMK A01 T00861054  RH  037%=      5-min Rain = 0
KDC1 200051Z 30004KT 09/M05 A3029 RMK A01 T00871054  RH  036%=      5-min Rain = 0
KDC1 200052Z 30003KT 09/M05 A3029 RMK A01 T00881054  RH  036%=      5-min Rain = 0
KDC1 200053Z 30003KT 09/M05 A3029 RMK A01 T00881054  RH  036%=      5-min Rain = 0
KDC1 200054Z 29004KT 09/M05 A3029 RMK A01 T00851054  RH  037%=      5-min Rain = 0
KDC1 200055Z 30004KT 08/M05 A3029 RMK A01 T00831054  RH  037%=      5-min Rain = 0
KDC1 200056Z 30004KT 08/M05 A3029 RMK A01 T00811054  RH  038%=      5-min Rain = 0
KDC1 200057Z 29004KT 08/M06 A3029 RMK A01 T00791055  RH  038%=      5-min Rain = 0
KDC1 200058Z 28004KT 08/M06 A3029 RMK A01 T00781055  RH  038%=      5-min Rain = 0
KDC1 200059Z 28004KT 08/M06 A3029 RMK A01 T00781055  RH  038%=      5-min Rain = 0
KDC1 200100Z 29004KT 08/M06 A3029 RMK A01 T00771056  RH  038%=      5-min Rain = 0
KDC1 200101Z 30004KT 08/M06 A3029 RMK A01 T00771057  RH  038%=      5-min Rain = 0
KDC1 200102Z 31004KT 08/M06 A3029 RMK A01 T00761058  RH  038%=      5-min Rain = 0
KDC1 200103Z 31004KT 08/M06 A3029 RMK A01 T00801058  RH  037%=      5-min Rain = 0
KDC1 200104Z 32004KT 08/M06 A3029 RMK A01 T00831061  RH  035%=      5-min Rain = 0
KDC1 200105Z 32004KT 09/M07 A3029 RMK A01 T00861066  RH  034%=      5-min Rain = 0
KDC1 200106Z 33004KT 09/M07 A3029 RMK A01 T00881071  RH  032%=      5-min Rain = 0
KDC1 200107Z 34004KT 09/M07 A3029 RMK A01 T00881072  RH  032%=      5-min Rain = 0
KDC1 200108Z 35004KT 09/M07 A3029 RMK A01 T00871070  RH  032%=      5-min Rain = 0
KDC1 200109Z 35005KT 09/M07 A3029 RMK A01 T00851066  RH  033%=      5-min Rain = 0
KDC1 200110Z 35005KT 08/M07 A3029 RMK A01 T00821065  RH  034%=      5-min Rain = 0
KDC1 200111Z 36005KT 08/M07 A3029 RMK A01 T00801066  RH  035%=      5-min Rain = 0
KDC1 200112Z 00005KT 08/M07 A3029 RMK A01 T00781068  RH  035%=      5-min Rain = 0
KDC1 200113Z 35004KT 08/M07 A3029 RMK A01 T00771072  RH  034%=      5-min Rain = 0
KDC1 200114Z 35002KT 08/M07 A3029 RMK A01 T00771070  RH  035%=      5-min Rain = 0
KDC1 200115Z 35004KT 08/M07 A3029 RMK A01 T00771069  RH  035%=      5-min Rain = 0
KDC1 200116Z 33003KT 08/M07 A3029 RMK A01 T00761073  RH  034%=      5-min Rain = 0
KDC1 200117Z 21003KT 08/M07 A3029 RMK A01 T00771072  RH  034%=      5-min Rain = 0
KDC1 200118Z 21005KT 08/M07 A3029 RMK A01 T00781072  RH  034%=      5-min Rain = 0
KDC1 200119Z 21004KT 08/M08 A3029 RMK A01 T00791076  RH  032%=      5-min Rain = 0
KDC1 200120Z 22006KT 08/M07 A3029 RMK A01 T00811074  RH  033%=      5-min Rain = 0
KDC1 200121Z 21004KT 08/M08 A3029 RMK A01 T00801082  RH  031%=      5-min Rain = 0
KDC1 200122Z 20004KT 08/M08 A3029 RMK A01 T00831083  RH  030%=      5-min Rain = 0
KDC1 200123Z 20005KT 09/M08 A3029 RMK A01 T00851084  RH  029%=      5-min Rain = 0
KDC1 200124Z 20005KT 09/M08 A3029 RMK A01 T00851082  RH  030%=      5-min Rain = 0
KDC1 200125Z 21004KT 09/M08 A3029 RMK A01 T00851083  RH  030%=      5-min Rain = 0
KDC1 200126Z 23004KT 09/M09 A3029 RMK A01 T00881085  RH  029%=      5-min Rain = 0
KDC1 200127Z 21002KT 09/M09 A3029 RMK A01 T00931085  RH  028%=      5-min Rain = 0
KDC1 200128Z 21003KT 10/M09 A3029 RMK A01 T00951085  RH  027%=      5-min Rain = 0
KDC1 200129Z 21002KT 10/M09 A3029 RMK A01 T00961086  RH  027%=      5-min Rain = 0
KDC1 200130Z 22001KT 10/M09 A3029 RMK A01 T00971086  RH  027%=      5-min Rain = 0
KDC1 200131Z 21000KT 10/M09 A3029 RMK A01 T00961087  RH  027%=      5-min Rain = 0
KDC1 200132Z 00000KT 10/M09 A3029 RMK A01 T00971087  RH  026%=      5-min Rain = 0
KDC1 200133Z 35000KT 10/M09 A3029 RMK A01 T00971087  RH  026%=      5-min Rain = 0
KDC1 200134Z 23000KT 10/M09 A3029 RMK A01 T00971085  RH  027%=      5-min Rain = 0
KDC1 200135Z 28000KT 10/M09 A3029 RMK A01 T00961085  RH  027%=      5-min Rain = 0
KDC1 200136Z 25002KT 10/M09 A3029 RMK A01 T00951086  RH  027%=      5-min Rain = 0
KDC1 200137Z 27002KT 10/M09 A3029 RMK A01 T00951085  RH  027%=      5-min Rain = 0
KDC1 200138Z 27002KT 09/M08 A3029 RMK A01 T00941084  RH  027%=      5-min Rain = 0
KDC1 200139Z 29002KT 10/M08 A3029 RMK A01 T00951083  RH  028%=      5-min Rain = 0
KDC1 200140Z 29003KT 10/M08 A3029 RMK A01 T00951083  RH  028%=      5-min Rain = 0
KDC1 200141Z 28003KT 10/M08 A3029 RMK A01 T00951083  RH  028%=      5-min Rain = 0
KDC1 200142Z 27003KT 09/M08 A3028 RMK A01 T00931083  RH  028%=      5-min Rain = 0
KDC1 200143Z 26002KT 09/M08 A3028 RMK A01 T00921082  RH  028%=      5-min Rain = 0
KDC1 200144Z 26002KT 09/M08 A3028 RMK A01 T00901083  RH  029%=      5-min Rain = 0
KDC1 200145Z 28002KT 09/M08 A3029 RMK A01 T00891083  RH  029%=      5-min Rain = 0
KDC1 200146Z 31002KT 09/M08 A3029 RMK A01 T00881083  RH  029%=      5-min Rain = 0
KDC1 200147Z 30004KT 09/M08 A3029 RMK A01 T00871081  RH  030%=      5-min Rain = 0
KDC1 200148Z 29004KT 08/M08 A3029 RMK A01 T00831081  RH  031%=      5-min Rain = 0
KDC1 200149Z 29004KT 08/M08 A3029 RMK A01 T00811081  RH  031%=      5-min Rain = 0
KDC1 200150Z 30004KT 08/M08 A3029 RMK A01 T00791081  RH  031%=      5-min Rain = 0
KDC1 200151Z 30005KT 08/M08 A3029 RMK A01 T00781081  RH  031%=      5-min Rain = 0
KDC1 200152Z 30005KT 08/M08 A3029 RMK A01 T00751078  RH  033%=      5-min Rain = 0
KDC1 200153Z 29005KT 07/M08 A3029 RMK A01 T00711079  RH  034%=      5-min Rain = 0
KDC1 200154Z 30005KT 07/M08 A3029 RMK A01 T00681079  RH  034%=      5-min Rain = 0
KDC1 200155Z 30005KT 07/M08 A3029 RMK A01 T00661079  RH  035%=      5-min Rain = 0
KDC1 200156Z 31005KT 07/M08 A3029 RMK A01 T00671079  RH  034%=      5-min Rain = 0
KDC1 200157Z 31006KT 07/M08 A3029 RMK A01 T00661078  RH  035%=      5-min Rain = 0
KDC1 200158Z 31005KT 07/M08 A3029 RMK A01 T00651078  RH  035%=      5-min Rain = 0
KDC1 200159Z 32006KT 06/M08 A3029 RMK A01 T00631077  RH  036%=      5-min Rain = 0
KDC1 200200Z 32005KT 06/M08 A303 RMK A01 T00611076  RH  037%=      5-min Rain = 0
KDC1 200201Z 32006KT 06/M08 A303 RMK A01 T00601078  RH  036%=      5-min Rain = 0
KDC1 200202Z 32006KT 06/M08 A303 RMK A01 T00611078  RH  036%=      5-min Rain = 0
KDC1 200203Z 32006KT 06/M08 A303 RMK A01 T00611079  RH  036%=      5-min Rain = 0
KDC1 200204Z 32007KT 06/M08 A3031 RMK A01 T00621079  RH  036%=      5-min Rain = 0
KDC1 200205Z 32007KT 06/M08 A3031 RMK A01 T00621079  RH  036%=      5-min Rain = 0
KDC1 200206Z 31007KT 06/M08 A3031 RMK A01 T00611078  RH  036%=      5-min Rain = 0
KDC1 200207Z 31007KT 06/M08 A3031 RMK A01 T00601079  RH  036%=      5-min Rain = 0
KDC1 200208Z 31007KT 06/M08 A3031 RMK A01 T00601078  RH  036%=      5-min Rain = 0
KDC1 200209Z 31007KT 06/M08 A3031 RMK A01 T00591078  RH  037%=      5-min Rain = 0
KDC1 200210Z 32007KT 06/M08 A3031 RMK A01 T00581077  RH  037%=      5-min Rain = 0
KDC1 200211Z 32006KT 06/M08 A3031 RMK A01 T00581077  RH  037%=      5-min Rain = 0
KDC1 200212Z 32006KT 06/M08 A3031 RMK A01 T00571077  RH  038%=      5-min Rain = 0
KDC1 200213Z 32007KT 06/M08 A3032 RMK A01 T00561076  RH  038%=      5-min Rain = 0
KDC1 200214Z 31007KT 06/M08 A3032 RMK A01 T00551076  RH  038%=      5-min Rain = 0
KDC1 200215Z 31007KT 06/M08 A3032 RMK A01 T00551077  RH  038%=      5-min Rain = 0
KDC1 200216Z 30007KT 06/M08 A3031 RMK A01 T00561076  RH  038%=      5-min Rain = 0
KDC1 200217Z 30007KT 06/M08 A3031 RMK A01 T00551075  RH  038%=      5-min Rain = 0
KDC1 200218Z 30007KT 05/M07 A3031 RMK A01 T00531073  RH  040%=      5-min Rain = 0
KDC1 200219Z 29007KT 05/M07 A3031 RMK A01 T00491071  RH  041%=      5-min Rain = 0
KDC1 200220Z 29007KT 05/M07 A3031 RMK A01 T00451070  RH  043%=      5-min Rain = 0
KDC1 200221Z 29007KT 04/M07 A3031 RMK A01 T00421068  RH  045%=      5-min Rain = 0
KDC1 200222Z 30006KT 04/M07 A3032 RMK A01 T00401066  RH  046%=      5-min Rain = 0
KDC1 200223Z 30006KT 04/M07 A3032 RMK A01 T00391066  RH  046%=      5-min Rain = 0
KDC1 200224Z 30006KT 04/M07 A3032 RMK A01 T00391066  RH  046%=      5-min Rain = 0
KDC1 200225Z 30005KT 04/M07 A3032 RMK A01 T00391066  RH  046%=      5-min Rain = 0
KDC1 200226Z 31005KT 04/M07 A3032 RMK A01 T00381065  RH  047%=      5-min Rain = 0
KDC1 200227Z 31006KT 04/M07 A3032 RMK A01 T00361065  RH  047%=      5-min Rain = 0
KDC1 200228Z 31005KT 04/M06 A3031 RMK A01 T00351064  RH  048%=      5-min Rain = 0
KDC1 200229Z 30005KT 03/M06 A3031 RMK A01 T00341064  RH  049%=      5-min Rain = 0
KDC1 200230Z 30005KT 03/M06 A3031 RMK A01 T00331064  RH  049%=      5-min Rain = 0
KDC1 200231Z 29006KT 03/M07 A3031 RMK A01 T00311065  RH  049%=      5-min Rain = 0
KDC1 200232Z 29006KT 03/M06 A3031 RMK A01 T00301064  RH  050%=      5-min Rain = 0
KDC1 200233Z 29006KT 03/M06 A3031 RMK A01 T00291064  RH  050%=      5-min Rain = 0
KDC1 200234Z 28006KT 03/M07 A3031 RMK A01 T00291065  RH  050%=      5-min Rain = 0
KDC1 200235Z 27006KT 03/M07 A3031 RMK A01 T00281067  RH  050%=      5-min Rain = 0
KDC1 200236Z 27006KT 03/M07 A3031 RMK A01 T00281070  RH  048%=      5-min Rain = 0
KDC1 200237Z 27005KT 03/M07 A3031 RMK A01 T00291073  RH  047%=      5-min Rain = 0
KDC1 200238Z 27005KT 03/M07 A3031 RMK A01 T00311074  RH  046%=      5-min Rain = 0
KDC1 200239Z 27005KT 03/M08 A3031 RMK A01 T00311075  RH  046%=      5-min Rain = 0
KDC1 200240Z 28005KT 03/M08 A3031 RMK A01 T00311075  RH  046%=      5-min Rain = 0
KDC1 200241Z 28005KT 03/M07 A3031 RMK A01 T00301074  RH  046%=      5-min Rain = 0
KDC1 200242Z 28005KT 03/M07 A3032 RMK A01 T00301074  RH  046%=      5-min Rain = 0
KDC1 200243Z 29006KT 03/M07 A3032 RMK A01 T00291073  RH  047%=      5-min Rain = 0
KDC1 200244Z 28007KT 03/M07 A3032 RMK A01 T00291072  RH  047%=      5-min Rain = 0
KDC1 200245Z 28007KT 03/M07 A3032 RMK A01 T00291072  RH  047%=      5-min Rain = 0
KDC1 200246Z 28007KT 03/M07 A3032 RMK A01 T00301073  RH  046%=      5-min Rain = 0
KDC1 200247Z 29007KT 03/M07 A3032 RMK A01 T00341073  RH  046%=      5-min Rain = 0
KDC1 200248Z 29008KT 04/M07 A3032 RMK A01 T00371071  RH  045%=      5-min Rain = 0
KDC1 200249Z 30008KT 04/M07 A3032 RMK A01 T00391071  RH  045%=      5-min Rain = 0
KDC1 200250Z 30008KT 04/M07 A3032 RMK A01 T00381072  RH  044%=      5-min Rain = 0
KDC1 200251Z 30007KT 04/M07 A3032 RMK A01 T00361073  RH  045%=      5-min Rain = 0
KDC1 200252Z 30006KT 03/M07 A3032 RMK A01 T00341074  RH  045%=      5-min Rain = 0
KDC1 200253Z 29006KT 03/M07 A3032 RMK A01 T00331073  RH  046%=      5-min Rain = 0
KDC1 200254Z 29006KT 03/M07 A3032 RMK A01 T00321071  RH  047%=      5-min Rain = 0
KDC1 200255Z 30006KT 03/M07 A3032 RMK A01 T00301070  RH  048%=      5-min Rain = 0
KDC1 200256Z 30006KT 03/M07 A3032 RMK A01 T00291069  RH  049%=      5-min Rain = 0
KDC1 200257Z 29006KT 03/M07 A3032 RMK A01 T00281068  RH  049%=      5-min Rain = 0
KDC1 200258Z 29005KT 03/M07 A3032 RMK A01 T00271067  RH  050%=      5-min Rain = 0
KDC1 200259Z 29006KT 03/M07 A3032 RMK A01 T00271066  RH  050%=      5-min Rain = 0
KDC1 200300Z 28006KT 03/M07 A3032 RMK A01 T00281067  RH  050%=      5-min Rain = 0
KDC1 200301Z 28006KT 03/M07 A3032 RMK A01 T00281068  RH  049%=      5-min Rain = 0
KDC1 200302Z 28006KT 03/M07 A3031 RMK A01 T00291069  RH  049%=      5-min Rain = 0
KDC1 200303Z 28006KT 03/M07 A3032 RMK A01 T00301070  RH  048%=      5-min Rain = 0
KDC1 200304Z 28006KT 03/M07 A3032 RMK A01 T00311070  RH  048%=      5-min Rain = 0
KDC1 200305Z 28006KT 03/M07 A3032 RMK A01 T00311069  RH  048%=      5-min Rain = 0
KDC1 200306Z 28007KT 03/M07 A3031 RMK A01 T00311069  RH  048%=      5-min Rain = 0
KDC1 200307Z 28007KT 03/M07 A3031 RMK A01 T00311069  RH  048%=      5-min Rain = 0
KDC1 200308Z 28007KT 03/M07 A3031 RMK A01 T00321069  RH  048%=      5-min Rain = 0
KDC1 200309Z 29007KT 03/M07 A3031 RMK A01 T00321070  RH  047%=      5-min Rain = 0
KDC1 200310Z 29008KT 03/M07 A3031 RMK A01 T00331071  RH  046%=      5-min Rain = 0
KDC1 200311Z 29008KT 03/M07 A3031 RMK A01 T00341070  RH  046%=      5-min Rain = 0
KDC1 200312Z 28009KT 03/M07 A3031 RMK A01 T00341070  RH  047%=      5-min Rain = 0
KDC1 200313Z 28009KT 03/M07 A3031 RMK A01 T00341070  RH  046%=      5-min Rain = 0
KDC1 200314Z 29009KT 04/M07 A3031 RMK A01 T00351070  RH  046%=      5-min Rain = 0
KDC1 200315Z 29009KT 04/M07 A3031 RMK A01 T00361070  RH  046%=      5-min Rain = 0
KDC1 200316Z 29009KT 04/M07 A3031 RMK A01 T00371069  RH  046%=      5-min Rain = 0
KDC1 200317Z 29010KT 04/M07 A3031 RMK A01 T00391068  RH  046%=      5-min Rain = 0
KDC1 200318Z 29010KT 04/M07 A3031 RMK A01 T00401067  RH  045%=      5-min Rain = 0
KDC1 200319Z 29010KT 04/M07 A3031 RMK A01 T00411067  RH  045%=      5-min Rain = 0
KDC1 200320Z 29010KT 04/M07 A3031 RMK A01 T00411067  RH  045%=      5-min Rain = 0
KDC1 200321Z 29010KT 04/M07 A3031 RMK A01 T00411067  RH  045%=      5-min Rain = 0
KDC1 200322Z 29009KT 04/M07 A3031 RMK A01 T00401067  RH  046%=      5-min Rain = 0
KDC1 200323Z 29009KT 04/M07 A3031 RMK A01 T00391068  RH  045%=      5-min Rain = 0
KDC1 200324Z 29009KT 04/M07 A3031 RMK A01 T00381070  RH  045%=      5-min Rain = 0
KDC1 200325Z 29009KT 04/M07 A3031 RMK A01 T00391070  RH  045%=      5-min Rain = 0
KDC1 200326Z 29009KT 04/M07 A3031 RMK A01 T00381070  RH  045%=      5-min Rain = 0
KDC1 200327Z 29009KT 04/M07 A3031 RMK A01 T00381070  RH  045%=      5-min Rain = 0
KDC1 200328Z 29009KT 04/M07 A3031 RMK A01 T00381071  RH  045%=      5-min Rain = 0
KDC1 200329Z 29009KT 04/M07 A3031 RMK A01 T00381071  RH  045%=      5-min Rain = 0
KDC1 200330Z 29009KT 04/M07 A3031 RMK A01 T00391072  RH  044%=      5-min Rain = 0
KDC1 200331Z 29009KT 04/M07 A3031 RMK A01 T00391073  RH  044%=      5-min Rain = 0
KDC1 200332Z 29010KT 04/M07 A3031 RMK A01 T00401073  RH  043%=      5-min Rain = 0
KDC1 200333Z 28010KT 04/M07 A3031 RMK A01 T00411074  RH  043%=      5-min Rain = 0
KDC1 200334Z 28010KT 04/M07 A3031 RMK A01 T00421074  RH  042%=      5-min Rain = 0
KDC1 200335Z 28009KT 04/M07 A3031 RMK A01 T00421074  RH  042%=      5-min Rain = 0
KDC1 200336Z 28007KT 04/M07 A3031 RMK A01 T00421074  RH  043%=      5-min Rain = 0
KDC1 200337Z 19004KT 04/M07 A3031 RMK A01 T00401074  RH  043%=      5-min Rain = 0
KDC1 200338Z 18004KT 04/M07 A3031 RMK A01 T00391070  RH  045%=      5-min Rain = 0
KDC1 200339Z 21003KT 04/M07 A3031 RMK A01 T00361066  RH  047%=      5-min Rain = 0
KDC1 200340Z 22005KT 04/M07 A3031 RMK A01 T00371069  RH  046%=      5-min Rain = 0
KDC1 200341Z 25003KT 04/M07 A3031 RMK A01 T00421070  RH  044%=      5-min Rain = 0
KDC1 200342Z 26004KT 05/M07 A3031 RMK A01 T00461071  RH  042%=      5-min Rain = 0
KDC1 200343Z 24003KT 05/M07 A3031 RMK A01 T00481073  RH  041%=      5-min Rain = 0
KDC1 200344Z 24003KT 05/M07 A3031 RMK A01 T00491072  RH  041%=      5-min Rain = 0
KDC1 200345Z 24004KT 05/M07 A3031 RMK A01 T00501072  RH  041%=      5-min Rain = 0
KDC1 200346Z 26006KT 05/M07 A3031 RMK A01 T00501072  RH  041%=      5-min Rain = 0
KDC1 200347Z 27006KT 05/M07 A3031 RMK A01 T00511072  RH  041%=      5-min Rain = 0
KDC1 200348Z 25005KT 05/M07 A3031 RMK A01 T00511071  RH  041%=      5-min Rain = 0
KDC1 200349Z 24003KT 05/M07 A3031 RMK A01 T00491071  RH  042%=      5-min Rain = 0
KDC1 200350Z 23003KT 05/M07 A3031 RMK A01 T00481071  RH  042%=      5-min Rain = 0
KDC1 200351Z 26005KT 05/M07 A3031 RMK A01 T00481070  RH  042%=      5-min Rain = 0
KDC1 200352Z 26006KT 05/M07 A3031 RMK A01 T00471070  RH  043%=      5-min Rain = 0
KDC1 200353Z 26007KT 05/M07 A3031 RMK A01 T00461070  RH  043%=      5-min Rain = 0
KDC1 200354Z 26008KT 05/M07 A3031 RMK A01 T00451069  RH  043%=      5-min Rain = 0
KDC1 200355Z 26008KT 05/M07 A3031 RMK A01 T00451071  RH  043%=      5-min Rain = 0
KDC1 200356Z 27008KT 05/M07 A3031 RMK A01 T00461072  RH  042%=      5-min Rain = 0
KDC1 200357Z 27009KT 05/M07 A3031 RMK A01 T00461070  RH  043%=      5-min Rain = 0
KDC1 200358Z 27010KT 04/M07 A3031 RMK A01 T00441070  RH  043%=      5-min Rain = 0
KDC1 200359Z 28010KT 04/M07 A3031 RMK A01 T00441070  RH  044%=      5-min Rain = 0
KDC1 200400Z 28010KT 04/M07 A3031 RMK A01 T00431070  RH  044%=      5-min Rain = 0
KDC1 200401Z 28009KT 04/M07 A3031 RMK A01 T00431070  RH  044%=      5-min Rain = 0
KDC1 200402Z 28008KT 04/M07 A3031 RMK A01 T00421071  RH  044%=      5-min Rain = 0
KDC1 200403Z 28008KT 04/M07 A3031 RMK A01 T00411072  RH  044%=      5-min Rain = 0
KDC1 200404Z 28007KT 04/M07 A3031 RMK A01 T00411072  RH  044%=      5-min Rain = 0
KDC1 200405Z 28007KT 04/M07 A3031 RMK A01 T00391072  RH  044%=      5-min Rain = 0
KDC1 200406Z 28007KT 04/M07 A3031 RMK A01 T00381072  RH  044%=      5-min Rain = 0
KDC1 200407Z 29008KT 04/M07 A3031 RMK A01 T00381072  RH  044%=      5-min Rain = 0
KDC1 200408Z 29008KT 04/M07 A3031 RMK A01 T00381072  RH  044%=      5-min Rain = 0
KDC1 200409Z 29008KT 04/M07 A3031 RMK A01 T00381073  RH  044%=      5-min Rain = 0
KDC1 200410Z 29009KT 04/M08 A3031 RMK A01 T00381075  RH  044%=      5-min Rain = 0
KDC1 200411Z 29009KT 04/M08 A3031 RMK A01 T00381075  RH  043%=      5-min Rain = 0
KDC1 200412Z 28010KT 04/M08 A3031 RMK A01 T00381076  RH  043%=      5-min Rain = 0
KDC1 200413Z 28010KT 04/M08 A3031 RMK A01 T00381077  RH  043%=      5-min Rain = 0
KDC1 200414Z 29009KT 04/M08 A3031 RMK A01 T00391077  RH  043%=      5-min Rain = 0
KDC1 200415Z 29009KT 04/M08 A3031 RMK A01 T00391076  RH  043%=      5-min Rain = 0
KDC1 200416Z 29009KT 04/M08 A3031 RMK A01 T00391075  RH  043%=      5-min Rain = 0
KDC1 200417Z 29009KT 04/M08 A3031 RMK A01 T00391075  RH  043%=      5-min Rain = 0
KDC1 200418Z 29009KT 04/M08 A3031 RMK A01 T00391075  RH  043%=      5-min Rain = 0
KDC1 200419Z 29009KT 04/M08 A3031 RMK A01 T00381076  RH  043%=      5-min Rain = 0
KDC1 200420Z 29008KT 04/M08 A3031 RMK A01 T00381076  RH  043%=      5-min Rain = 0
KDC1 200421Z 29008KT 04/M08 A3031 RMK A01 T00361076  RH  044%=      5-min Rain = 0
KDC1 200422Z 29008KT 04/M08 A3031 RMK A01 T00351076  RH  044%=      5-min Rain = 0
KDC1 200423Z 29008KT 03/M08 A3031 RMK A01 T00341076  RH  044%=      5-min Rain = 0
KDC1 200424Z 29007KT 03/M08 A3031 RMK A01 T00331076  RH  044%=      5-min Rain = 0
KDC1 200425Z 29007KT 03/M08 A3031 RMK A01 T00331076  RH  044%=      5-min Rain = 0
KDC1 200426Z 29005KT 03/M08 A3031 RMK A01 T00331076  RH  044%=      5-min Rain = 0
KDC1 200427Z 28003KT 03/M08 A3031 RMK A01 T00341075  RH  045%=      5-min Rain = 0
KDC1 200428Z 24001KT 03/M08 A3031 RMK A01 T00331075  RH  045%=      5-min Rain = 0
KDC1 200429Z 17001KT 03/M08 A3031 RMK A01 T00321076  RH  045%=      5-min Rain = 0
KDC1 200430Z 15002KT 03/M07 A3031 RMK A01 T00321073  RH  046%=      5-min Rain = 0
KDC1 200431Z 15002KT 03/M07 A3031 RMK A01 T00311074  RH  046%=      5-min Rain = 0
KDC1 200432Z 15003KT 03/M07 A3031 RMK A01 T00321072  RH  046%=      5-min Rain = 0
KDC1 200433Z 20003KT 03/M07 A3031 RMK A01 T00321070  RH  047%=      5-min Rain = 0
KDC1 200434Z 20003KT 03/M07 A3031 RMK A01 T00321072  RH  046%=      5-min Rain = 0
KDC1 200435Z 25002KT 04/M08 A3031 RMK A01 T00361076  RH  044%=      5-min Rain = 0
KDC1 200436Z 26003KT 04/M08 A3031 RMK A01 T00421078  RH  042%=      5-min Rain = 0
KDC1 200437Z 27003KT 05/M08 A3031 RMK A01 T00461078  RH  040%=      5-min Rain = 0
KDC1 200438Z 28002KT 05/M08 A3031 RMK A01 T00481079  RH  039%=      5-min Rain = 0
KDC1 200439Z 27003KT 05/M08 A3031 RMK A01 T00481080  RH  039%=      5-min Rain = 0
KDC1 200440Z 25002KT 05/M08 A3031 RMK A01 T00491080  RH  039%=      5-min Rain = 0
KDC1 200441Z 27002KT 05/M08 A3031 RMK A01 T00501081  RH  038%=      5-min Rain = 0
KDC1 200442Z 29002KT 05/M08 A3032 RMK A01 T00511081  RH  038%=      5-min Rain = 0
KDC1 200443Z 27003KT 05/M08 A3032 RMK A01 T00511081  RH  038%=      5-min Rain = 0
KDC1 200444Z 28002KT 05/M08 A3032 RMK A01 T00511081  RH  038%=      5-min Rain = 0
KDC1 200445Z 28002KT 05/M08 A3032 RMK A01 T00521081  RH  038%=      5-min Rain = 0
KDC1 200446Z 29002KT 05/M08 A3032 RMK A01 T00521081  RH  038%=      5-min Rain = 0
KDC1 200447Z 35003KT 05/M08 A3032 RMK A01 T00531081  RH  037%=      5-min Rain = 0
KDC1 200448Z 36001KT 05/M08 A3032 RMK A01 T00541081  RH  037%=      5-min Rain = 0
KDC1 200449Z 32003KT 06/M08 A3032 RMK A01 T00551080  RH  037%=      5-min Rain = 0
KDC1 200450Z 32003KT 06/M08 A3032 RMK A01 T00561080  RH  037%=      5-min Rain = 0
KDC1 200451Z 03001KT 06/M08 A3032 RMK A01 T00571080  RH  036%=      5-min Rain = 0
KDC1 200452Z 34003KT 06/M08 A3032 RMK A01 T00571079  RH  037%=      5-min Rain = 0
KDC1 200453Z 03002KT 06/M08 A3032 RMK A01 T00561079  RH  037%=      5-min Rain = 0
KDC1 200454Z 05002KT 06/M08 A3032 RMK A01 T00551079  RH  038%=      5-min Rain = 0
KDC1 200455Z 08002KT 05/M08 A3032 RMK A01 T00531078  RH  038%=      5-min Rain = 0
KDC1 200456Z 08003KT 05/M08 A3032 RMK A01 T00501076  RH  040%=      5-min Rain = 0
KDC1 200457Z 06002KT 05/M08 A3032 RMK A01 T00491077  RH  040%=      5-min Rain = 0
KDC1 200458Z 06003KT 05/M08 A3032 RMK A01 T00491076  RH  040%=      5-min Rain = 0
KDC1 200459Z 05003KT 05/M08 A3032 RMK A01 T00471076  RH  041%=      5-min Rain = 0
KDC1 200500Z 04002KT 05/M08 A3032 RMK A01 T00461076  RH  041%=      5-min Rain = 0
KDC1 200501Z 01002KT 04/M08 A3032 RMK A01 T00441077  RH  041%=      5-min Rain = 0
KDC1 200502Z 00001KT 04/M08 A3032 RMK A01 T00441080  RH  040%=      5-min Rain = 0
KDC1 200503Z 01003KT 05/M08 A3032 RMK A01 T00451081  RH  039%=      5-min Rain = 0
KDC1 200504Z 00003KT 05/M08 A3032 RMK A01 T00461082  RH  039%=      5-min Rain = 0
KDC1 200505Z 01003KT 05/M08 A3032 RMK A01 T00491082  RH  038%=      5-min Rain = 0
KDC1 200506Z 01004KT 05/M08 A3032 RMK A01 T00491082  RH  038%=      5-min Rain = 0
KDC1 200507Z 02004KT 05/M08 A3032 RMK A01 T00501081  RH  038%=      5-min Rain = 0
KDC1 200508Z 01005KT 05/M08 A3032 RMK A01 T00491080  RH  039%=      5-min Rain = 0
KDC1 200509Z 02005KT 05/M08 A3032 RMK A01 T00481080  RH  039%=      5-min Rain = 0
KDC1 200510Z 00006KT 05/M08 A3032 RMK A01 T00471079  RH  040%=      5-min Rain = 0
KDC1 200511Z 02006KT 05/M08 A3032 RMK A01 T00461080  RH  040%=      5-min Rain = 0
KDC1 200512Z 03005KT 05/M08 A3032 RMK A01 T00471079  RH  040%=      5-min Rain = 0
KDC1 200513Z 02005KT 05/M08 A3032 RMK A01 T00471079  RH  040%=      5-min Rain = 0
KDC1 200514Z 01004KT 05/M08 A3032 RMK A01 T00461078  RH  040%=      5-min Rain = 0
KDC1 200515Z 02003KT 04/M08 A3032 RMK A01 T00441079  RH  041%=      5-min Rain = 0
KDC1 200516Z 09003KT 04/M08 A3033 RMK A01 T00421079  RH  041%=      5-min Rain = 0
KDC1 200517Z 13006KT 04/M07 A3033 RMK A01 T00391074  RH  044%=      5-min Rain = 0
KDC1 200518Z 13005KT 03/M07 A3033 RMK A01 T00321072  RH  046%=      5-min Rain = 0
KDC1 200519Z 12004KT 03/M07 A3033 RMK A01 T00281072  RH  048%=      5-min Rain = 0
KDC1 200520Z 14002KT 03/M07 A3033 RMK A01 T00281073  RH  047%=      5-min Rain = 0
KDC1 200521Z 18001KT 03/M07 A3033 RMK A01 T00281071  RH  048%=      5-min Rain = 0
KDC1 200522Z 19000KT 03/M07 A3033 RMK A01 T00281074  RH  047%=      5-min Rain = 0
KDC1 200523Z 01002KT 03/M08 A3033 RMK A01 T00291076  RH  046%=      5-min Rain = 0
KDC1 200524Z 01003KT 03/M08 A3033 RMK A01 T00321077  RH  045%=      5-min Rain = 0
KDC1 200525Z 01003KT 04/M08 A3033 RMK A01 T00351077  RH  044%=      5-min Rain = 0
KDC1 200526Z 01002KT 04/M08 A3033 RMK A01 T00361077  RH  043%=      5-min Rain = 0
KDC1 200527Z 19001KT 04/M08 A3033 RMK A01 T00361077  RH  044%=      5-min Rain = 0
KDC1 200528Z 18002KT 04/M08 A3033 RMK A01 T00351076  RH  044%=      5-min Rain = 0
KDC1 200529Z 17000KT 04/M08 A3033 RMK A01 T00361077  RH  044%=      5-min Rain = 0
KDC1 200530Z 02000KT 04/M08 A3033 RMK A01 T00371077  RH  043%=      5-min Rain = 0
KDC1 200531Z 03000KT 04/M08 A3033 RMK A01 T00371076  RH  043%=      5-min Rain = 0
KDC1 200532Z 02001KT 04/M08 A3033 RMK A01 T00371075  RH  044%=      5-min Rain = 0
KDC1 200533Z 02002KT 04/M08 A3033 RMK A01 T00371078  RH  043%=      5-min Rain = 0
KDC1 200534Z 02003KT 04/M08 A3033 RMK A01 T00391078  RH  042%=      5-min Rain = 0
KDC1 200535Z 01004KT 04/M08 A3033 RMK A01 T00391079  RH  042%=      5-min Rain = 0
KDC1 200536Z 00004KT 04/M08 A3033 RMK A01 T00391080  RH  042%=      5-min Rain = 0
KDC1 200537Z 35004KT 04/M08 A3033 RMK A01 T00381079  RH  042%=      5-min Rain = 0
KDC1 200538Z 36004KT 04/M08 A3034 RMK A01 T00371079  RH  042%=      5-min Rain = 0
KDC1 200539Z 36005KT 04/M08 A3034 RMK A01 T00361080  RH  042%=      5-min Rain = 0
KDC1 200540Z 35005KT 04/M08 A3034 RMK A01 T00351080  RH  043%=      5-min Rain = 0
KDC1 200541Z 34005KT 04/M08 A3034 RMK A01 T00351081  RH  042%=      5-min Rain = 0
KDC1 200542Z 35005KT 04/M08 A3034 RMK A01 T00361082  RH  042%=      5-min Rain = 0
KDC1 200543Z 35006KT 04/M08 A3034 RMK A01 T00371082  RH  041%=      5-min Rain = 0
KDC1 200544Z 35005KT 04/M08 A3034 RMK A01 T00381082  RH  041%=      5-min Rain = 0
KDC1 200545Z 35005KT 04/M08 A3034 RMK A01 T00381081  RH  042%=      5-min Rain = 0
KDC1 200546Z 36005KT 04/M08 A3034 RMK A01 T00371081  RH  042%=      5-min Rain = 0
KDC1 200547Z 36004KT 04/M08 A3034 RMK A01 T00351081  RH  042%=      5-min Rain = 0
KDC1 200548Z 35005KT 04/M08 A3034 RMK A01 T00351081  RH  043%=      5-min Rain = 0
KDC1 200549Z 35005KT 03/M08 A3034 RMK A01 T00341081  RH  043%=      5-min Rain = 0
KDC1 200550Z 35005KT 03/M08 A3034 RMK A01 T00341080  RH  043%=      5-min Rain = 0
KDC1 200551Z 34005KT 03/M08 A3034 RMK A01 T00341080  RH  043%=      5-min Rain = 0
KDC1 200552Z 34005KT 03/M08 A3034 RMK A01 T00321080  RH  044%=      5-min Rain = 0
KDC1 200553Z 34006KT 03/M08 A3034 RMK A01 T00311079  RH  044%=      5-min Rain = 0
KDC1 200554Z 34006KT 03/M08 A3034 RMK A01 T00291076  RH  046%=      5-min Rain = 0
KDC1 200555Z 33006KT 03/M08 A3034 RMK A01 T00251076  RH  047%=      5-min Rain = 0
KDC1 200556Z 33007KT 02/M07 A3034 RMK A01 T00231074  RH  049%=      5-min Rain = 0
KDC1 200557Z 33007KT 02/M07 A3034 RMK A01 T00191073  RH  050%=      5-min Rain = 0
KDC1 200558Z 33007KT 02/M07 A3034 RMK A01 T00161072  RH  052%=      5-min Rain = 0
KDC1 200559Z 32006KT 01/M07 A3034 RMK A01 T00141071  RH  053%=      5-min Rain = 0

Page generated in 0.1479 seconds.